<?xml version="1.0" encoding="UTF-8" standalone="no" ?>
<gpx xmlns="http://www.topografix.com/GPX/1/1" xmlns:xsi="http://www.w3.org/2001/XMLSchema-instance" xsi:schemaLocation="http://www.topografix.com/GPX/1/1 http://www.topografix.com/GPX/1/1/gpx.xsd" version="1.1" creator="VisuGPX - https://www.visugpx.com">
  <metadata>
    <name>St christol Lezan - Lezan- St Christol Les Ales</name>
  </metadata>
  <trk>
    <name><![CDATA[2019-10-03-15-06-39 on AllTrails]]></name>
    <trkseg>
      <trkpt lat="44.06186" lon="4.09259">
        <ele>117</ele>
        <time>2019-10-03T15:06:39Z</time>
      </trkpt>
      <trkpt lat="44.06165" lon="4.09269">
        <ele>117</ele>
        <time>2019-10-03T15:06:44Z</time>
      </trkpt>
      <trkpt lat="44.06145" lon="4.09279">
        <ele>117</ele>
        <time>2019-10-03T15:06:48Z</time>
      </trkpt>
      <trkpt lat="44.06126" lon="4.09288">
        <ele>117</ele>
        <time>2019-10-03T15:06:52Z</time>
      </trkpt>
      <trkpt lat="44.06107" lon="4.09298">
        <ele>116</ele>
        <time>2019-10-03T15:06:56Z</time>
      </trkpt>
      <trkpt lat="44.06094" lon="4.09304">
        <ele>116</ele>
        <time>2019-10-03T15:06:59Z</time>
      </trkpt>
      <trkpt lat="44.06082" lon="4.09312">
        <ele>116</ele>
        <time>2019-10-03T15:07:02Z</time>
      </trkpt>
      <trkpt lat="44.06071" lon="4.0933">
        <ele>115</ele>
        <time>2019-10-03T15:07:06Z</time>
      </trkpt>
      <trkpt lat="44.06076" lon="4.09353">
        <ele>115</ele>
        <time>2019-10-03T15:07:10Z</time>
      </trkpt>
      <trkpt lat="44.06078" lon="4.09357">
        <ele>115</ele>
        <time>2019-10-03T15:07:11Z</time>
      </trkpt>
      <trkpt lat="44.06091" lon="4.09386">
        <ele>115</ele>
        <time>2019-10-03T15:07:18Z</time>
      </trkpt>
      <trkpt lat="44.06098" lon="4.09403">
        <ele>115</ele>
        <time>2019-10-03T15:07:24Z</time>
      </trkpt>
      <trkpt lat="44.06104" lon="4.09417">
        <ele>115</ele>
        <time>2019-10-03T15:07:30Z</time>
      </trkpt>
      <trkpt lat="44.0612" lon="4.09448">
        <ele>115</ele>
        <time>2019-10-03T15:07:43Z</time>
      </trkpt>
      <trkpt lat="44.06131" lon="4.09466">
        <ele>115</ele>
        <time>2019-10-03T15:07:50Z</time>
      </trkpt>
      <trkpt lat="44.06139" lon="4.09477">
        <ele>115</ele>
        <time>2019-10-03T15:07:56Z</time>
      </trkpt>
      <trkpt lat="44.06147" lon="4.0949">
        <ele>115</ele>
        <time>2019-10-03T15:08:02Z</time>
      </trkpt>
      <trkpt lat="44.06149" lon="4.09495">
        <ele>115</ele>
        <time>2019-10-03T15:08:04Z</time>
      </trkpt>
      <trkpt lat="44.06155" lon="4.09503">
        <ele>115</ele>
        <time>2019-10-03T15:08:08Z</time>
      </trkpt>
      <trkpt lat="44.06161" lon="4.09518">
        <ele>115</ele>
        <time>2019-10-03T15:08:14Z</time>
      </trkpt>
      <trkpt lat="44.06163" lon="4.09528">
        <ele>115</ele>
        <time>2019-10-03T15:08:19Z</time>
      </trkpt>
      <trkpt lat="44.06155" lon="4.09547">
        <ele>115</ele>
        <time>2019-10-03T15:08:24Z</time>
      </trkpt>
      <trkpt lat="44.0614" lon="4.0957">
        <ele>116</ele>
        <time>2019-10-03T15:08:28Z</time>
      </trkpt>
      <trkpt lat="44.06129" lon="4.0959">
        <ele>116</ele>
        <time>2019-10-03T15:08:31Z</time>
      </trkpt>
      <trkpt lat="44.06118" lon="4.09613">
        <ele>116</ele>
        <time>2019-10-03T15:08:34Z</time>
      </trkpt>
      <trkpt lat="44.06108" lon="4.09636">
        <ele>116</ele>
        <time>2019-10-03T15:08:37Z</time>
      </trkpt>
      <trkpt lat="44.06103" lon="4.09644">
        <ele>116</ele>
        <time>2019-10-03T15:08:38Z</time>
      </trkpt>
      <trkpt lat="44.06092" lon="4.09668">
        <ele>117</ele>
        <time>2019-10-03T15:08:41Z</time>
      </trkpt>
      <trkpt lat="44.0608" lon="4.09693">
        <ele>117</ele>
        <time>2019-10-03T15:08:44Z</time>
      </trkpt>
      <trkpt lat="44.06069" lon="4.09716">
        <ele>117</ele>
        <time>2019-10-03T15:08:47Z</time>
      </trkpt>
      <trkpt lat="44.06059" lon="4.09739">
        <ele>117</ele>
        <time>2019-10-03T15:08:49Z</time>
      </trkpt>
      <trkpt lat="44.0605" lon="4.09761">
        <ele>117</ele>
        <time>2019-10-03T15:08:51Z</time>
      </trkpt>
      <trkpt lat="44.06042" lon="4.09795">
        <ele>116</ele>
        <time>2019-10-03T15:08:54Z</time>
      </trkpt>
      <trkpt lat="44.06041" lon="4.09806">
        <ele>116</ele>
        <time>2019-10-03T15:08:55Z</time>
      </trkpt>
      <trkpt lat="44.06041" lon="4.0984">
        <ele>116</ele>
        <time>2019-10-03T15:08:58Z</time>
      </trkpt>
      <trkpt lat="44.06044" lon="4.09874">
        <ele>115</ele>
        <time>2019-10-03T15:09:01Z</time>
      </trkpt>
      <trkpt lat="44.06048" lon="4.09906">
        <ele>114</ele>
        <time>2019-10-03T15:09:04Z</time>
      </trkpt>
      <trkpt lat="44.06053" lon="4.09934">
        <ele>113</ele>
        <time>2019-10-03T15:09:07Z</time>
      </trkpt>
      <trkpt lat="44.06056" lon="4.09963">
        <ele>113</ele>
        <time>2019-10-03T15:09:10Z</time>
      </trkpt>
      <trkpt lat="44.0606" lon="4.0999">
        <ele>112</ele>
        <time>2019-10-03T15:09:13Z</time>
      </trkpt>
      <trkpt lat="44.06066" lon="4.10014">
        <ele>111</ele>
        <time>2019-10-03T15:09:16Z</time>
      </trkpt>
      <trkpt lat="44.06071" lon="4.10035">
        <ele>111</ele>
        <time>2019-10-03T15:09:19Z</time>
      </trkpt>
      <trkpt lat="44.06075" lon="4.10073">
        <ele>110</ele>
        <time>2019-10-03T15:09:24Z</time>
      </trkpt>
      <trkpt lat="44.06075" lon="4.10104">
        <ele>109</ele>
        <time>2019-10-03T15:09:28Z</time>
      </trkpt>
      <trkpt lat="44.06074" lon="4.10135">
        <ele>108</ele>
        <time>2019-10-03T15:09:32Z</time>
      </trkpt>
      <trkpt lat="44.06075" lon="4.10161">
        <ele>108</ele>
        <time>2019-10-03T15:09:35Z</time>
      </trkpt>
      <trkpt lat="44.06076" lon="4.10187">
        <ele>107</ele>
        <time>2019-10-03T15:09:38Z</time>
      </trkpt>
      <trkpt lat="44.06078" lon="4.10195">
        <ele>107</ele>
        <time>2019-10-03T15:09:39Z</time>
      </trkpt>
      <trkpt lat="44.06087" lon="4.10222">
        <ele>107</ele>
        <time>2019-10-03T15:09:43Z</time>
      </trkpt>
      <trkpt lat="44.06099" lon="4.10254">
        <ele>106</ele>
        <time>2019-10-03T15:09:49Z</time>
      </trkpt>
      <trkpt lat="44.0611" lon="4.10273">
        <ele>105</ele>
        <time>2019-10-03T15:09:53Z</time>
      </trkpt>
      <trkpt lat="44.06115" lon="4.10283">
        <ele>105</ele>
        <time>2019-10-03T15:09:55Z</time>
      </trkpt>
      <trkpt lat="44.0613" lon="4.10305">
        <ele>105</ele>
        <time>2019-10-03T15:10:00Z</time>
      </trkpt>
      <trkpt lat="44.06134" lon="4.10316">
        <ele>104</ele>
        <time>2019-10-03T15:10:05Z</time>
      </trkpt>
      <trkpt lat="44.06136" lon="4.10318">
        <ele>104</ele>
        <time>2019-10-03T15:10:16Z</time>
      </trkpt>
      <trkpt lat="44.06136" lon="4.10318">
        <ele>104</ele>
        <time>2019-10-03T15:10:18Z</time>
      </trkpt>
      <trkpt lat="44.06141" lon="4.10336">
        <ele>104</ele>
        <time>2019-10-03T15:10:24Z</time>
      </trkpt>
      <trkpt lat="44.06151" lon="4.1036">
        <ele>104</ele>
        <time>2019-10-03T15:10:30Z</time>
      </trkpt>
      <trkpt lat="44.06161" lon="4.10386">
        <ele>104</ele>
        <time>2019-10-03T15:10:36Z</time>
      </trkpt>
      <trkpt lat="44.06161" lon="4.10407">
        <ele>104</ele>
        <time>2019-10-03T15:10:40Z</time>
      </trkpt>
      <trkpt lat="44.06155" lon="4.1046">
        <ele>104</ele>
        <time>2019-10-03T15:10:49Z</time>
      </trkpt>
      <trkpt lat="44.06155" lon="4.10471">
        <ele>104</ele>
        <time>2019-10-03T15:10:51Z</time>
      </trkpt>
      <trkpt lat="44.06154" lon="4.1048">
        <ele>104</ele>
        <time>2019-10-03T15:10:53Z</time>
      </trkpt>
      <trkpt lat="44.06153" lon="4.10503">
        <ele>104</ele>
        <time>2019-10-03T15:10:58Z</time>
      </trkpt>
      <trkpt lat="44.06153" lon="4.10509">
        <ele>104</ele>
        <time>2019-10-03T15:11:00Z</time>
      </trkpt>
      <trkpt lat="44.06152" lon="4.10528">
        <ele>104</ele>
        <time>2019-10-03T15:11:04Z</time>
      </trkpt>
      <trkpt lat="44.0615" lon="4.1053">
        <ele>104</ele>
        <time>2019-10-03T15:11:05Z</time>
      </trkpt>
      <trkpt lat="44.06139" lon="4.10532">
        <ele>103</ele>
        <time>2019-10-03T15:11:09Z</time>
      </trkpt>
      <trkpt lat="44.06123" lon="4.10536">
        <ele>103</ele>
        <time>2019-10-03T15:11:14Z</time>
      </trkpt>
      <trkpt lat="44.06106" lon="4.10534">
        <ele>102</ele>
        <time>2019-10-03T15:11:19Z</time>
      </trkpt>
      <trkpt lat="44.06087" lon="4.10524">
        <ele>102</ele>
        <time>2019-10-03T15:11:24Z</time>
      </trkpt>
      <trkpt lat="44.06069" lon="4.10509">
        <ele>101</ele>
        <time>2019-10-03T15:11:30Z</time>
      </trkpt>
      <trkpt lat="44.06058" lon="4.10501">
        <ele>101</ele>
        <time>2019-10-03T15:11:34Z</time>
      </trkpt>
      <trkpt lat="44.06045" lon="4.10498">
        <ele>101</ele>
        <time>2019-10-03T15:11:38Z</time>
      </trkpt>
      <trkpt lat="44.06027" lon="4.10494">
        <ele>100</ele>
        <time>2019-10-03T15:11:43Z</time>
      </trkpt>
      <trkpt lat="44.06009" lon="4.10493">
        <ele>100</ele>
        <time>2019-10-03T15:11:48Z</time>
      </trkpt>
      <trkpt lat="44.05993" lon="4.10483">
        <ele>100</ele>
        <time>2019-10-03T15:11:53Z</time>
      </trkpt>
      <trkpt lat="44.05981" lon="4.10479">
        <ele>100</ele>
        <time>2019-10-03T15:11:57Z</time>
      </trkpt>
      <trkpt lat="44.05962" lon="4.10481">
        <ele>100</ele>
        <time>2019-10-03T15:12:02Z</time>
      </trkpt>
      <trkpt lat="44.05945" lon="4.10485">
        <ele>100</ele>
        <time>2019-10-03T15:12:07Z</time>
      </trkpt>
      <trkpt lat="44.05935" lon="4.10493">
        <ele>100</ele>
        <time>2019-10-03T15:12:10Z</time>
      </trkpt>
      <trkpt lat="44.05916" lon="4.10496">
        <ele>100</ele>
        <time>2019-10-03T15:12:15Z</time>
      </trkpt>
      <trkpt lat="44.05896" lon="4.10498">
        <ele>100</ele>
        <time>2019-10-03T15:12:20Z</time>
      </trkpt>
      <trkpt lat="44.05882" lon="4.10501">
        <ele>100</ele>
        <time>2019-10-03T15:12:24Z</time>
      </trkpt>
      <trkpt lat="44.05871" lon="4.10509">
        <ele>100</ele>
        <time>2019-10-03T15:12:29Z</time>
      </trkpt>
      <trkpt lat="44.05867" lon="4.10507">
        <ele>100</ele>
        <time>2019-10-03T15:12:30Z</time>
      </trkpt>
      <trkpt lat="44.0586" lon="4.10506">
        <ele>100</ele>
        <time>2019-10-03T15:12:32Z</time>
      </trkpt>
      <trkpt lat="44.05856" lon="4.10492">
        <ele>101</ele>
        <time>2019-10-03T15:12:36Z</time>
      </trkpt>
      <trkpt lat="44.05851" lon="4.10483">
        <ele>101</ele>
        <time>2019-10-03T15:12:40Z</time>
      </trkpt>
      <trkpt lat="44.05832" lon="4.10487">
        <ele>101</ele>
        <time>2019-10-03T15:12:47Z</time>
      </trkpt>
      <trkpt lat="44.05813" lon="4.10489">
        <ele>102</ele>
        <time>2019-10-03T15:12:52Z</time>
      </trkpt>
      <trkpt lat="44.05794" lon="4.10492">
        <ele>102</ele>
        <time>2019-10-03T15:12:57Z</time>
      </trkpt>
      <trkpt lat="44.05781" lon="4.10499">
        <ele>102</ele>
        <time>2019-10-03T15:13:01Z</time>
      </trkpt>
      <trkpt lat="44.0577" lon="4.10509">
        <ele>102</ele>
        <time>2019-10-03T15:13:06Z</time>
      </trkpt>
      <trkpt lat="44.05768" lon="4.10511">
        <ele>102</ele>
        <time>2019-10-03T15:13:07Z</time>
      </trkpt>
      <trkpt lat="44.05745" lon="4.10515">
        <ele>102</ele>
        <time>2019-10-03T15:13:12Z</time>
      </trkpt>
      <trkpt lat="44.05725" lon="4.1052">
        <ele>102</ele>
        <time>2019-10-03T15:13:17Z</time>
      </trkpt>
      <trkpt lat="44.05705" lon="4.10529">
        <ele>102</ele>
        <time>2019-10-03T15:13:22Z</time>
      </trkpt>
      <trkpt lat="44.05701" lon="4.10532">
        <ele>102</ele>
        <time>2019-10-03T15:13:23Z</time>
      </trkpt>
      <trkpt lat="44.05683" lon="4.10542">
        <ele>102</ele>
        <time>2019-10-03T15:13:27Z</time>
      </trkpt>
      <trkpt lat="44.05663" lon="4.10553">
        <ele>102</ele>
        <time>2019-10-03T15:13:31Z</time>
      </trkpt>
      <trkpt lat="44.05642" lon="4.10562">
        <ele>102</ele>
        <time>2019-10-03T15:13:35Z</time>
      </trkpt>
      <trkpt lat="44.05622" lon="4.10571">
        <ele>102</ele>
        <time>2019-10-03T15:13:40Z</time>
      </trkpt>
      <trkpt lat="44.05603" lon="4.1058">
        <ele>102</ele>
        <time>2019-10-03T15:13:43Z</time>
      </trkpt>
      <trkpt lat="44.05598" lon="4.10581">
        <ele>102</ele>
        <time>2019-10-03T15:13:44Z</time>
      </trkpt>
      <trkpt lat="44.05578" lon="4.10586">
        <ele>101</ele>
        <time>2019-10-03T15:13:49Z</time>
      </trkpt>
      <trkpt lat="44.05556" lon="4.10591">
        <ele>101</ele>
        <time>2019-10-03T15:13:53Z</time>
      </trkpt>
      <trkpt lat="44.05538" lon="4.10596">
        <ele>100</ele>
        <time>2019-10-03T15:13:57Z</time>
      </trkpt>
      <trkpt lat="44.05521" lon="4.10604">
        <ele>100</ele>
        <time>2019-10-03T15:14:01Z</time>
      </trkpt>
      <trkpt lat="44.055" lon="4.10613">
        <ele>99</ele>
        <time>2019-10-03T15:14:06Z</time>
      </trkpt>
      <trkpt lat="44.05487" lon="4.1062">
        <ele>99</ele>
        <time>2019-10-03T15:14:09Z</time>
      </trkpt>
      <trkpt lat="44.05465" lon="4.10631">
        <ele>98</ele>
        <time>2019-10-03T15:14:14Z</time>
      </trkpt>
      <trkpt lat="44.05447" lon="4.10641">
        <ele>98</ele>
        <time>2019-10-03T15:14:18Z</time>
      </trkpt>
      <trkpt lat="44.05428" lon="4.10655">
        <ele>98</ele>
        <time>2019-10-03T15:14:22Z</time>
      </trkpt>
      <trkpt lat="44.05424" lon="4.10659">
        <ele>98</ele>
        <time>2019-10-03T15:14:23Z</time>
      </trkpt>
      <trkpt lat="44.05417" lon="4.10664">
        <ele>98</ele>
        <time>2019-10-03T15:14:25Z</time>
      </trkpt>
      <trkpt lat="44.05408" lon="4.10668">
        <ele>98</ele>
        <time>2019-10-03T15:14:27Z</time>
      </trkpt>
      <trkpt lat="44.05385" lon="4.10675">
        <ele>98</ele>
        <time>2019-10-03T15:14:32Z</time>
      </trkpt>
      <trkpt lat="44.0538" lon="4.10677">
        <ele>98</ele>
        <time>2019-10-03T15:14:33Z</time>
      </trkpt>
      <trkpt lat="44.05363" lon="4.10686">
        <ele>98</ele>
        <time>2019-10-03T15:14:37Z</time>
      </trkpt>
      <trkpt lat="44.05341" lon="4.10696">
        <ele>98</ele>
        <time>2019-10-03T15:14:41Z</time>
      </trkpt>
      <trkpt lat="44.05326" lon="4.10704">
        <ele>99</ele>
        <time>2019-10-03T15:14:44Z</time>
      </trkpt>
      <trkpt lat="44.05305" lon="4.10722">
        <ele>99</ele>
        <time>2019-10-03T15:14:49Z</time>
      </trkpt>
      <trkpt lat="44.05301" lon="4.10725">
        <ele>99</ele>
        <time>2019-10-03T15:14:50Z</time>
      </trkpt>
      <trkpt lat="44.05288" lon="4.10736">
        <ele>99</ele>
        <time>2019-10-03T15:14:53Z</time>
      </trkpt>
      <trkpt lat="44.05274" lon="4.10753">
        <ele>99</ele>
        <time>2019-10-03T15:14:57Z</time>
      </trkpt>
      <trkpt lat="44.05256" lon="4.10777">
        <ele>100</ele>
        <time>2019-10-03T15:15:02Z</time>
      </trkpt>
      <trkpt lat="44.05253" lon="4.10783">
        <ele>100</ele>
        <time>2019-10-03T15:15:03Z</time>
      </trkpt>
      <trkpt lat="44.0525" lon="4.10788">
        <ele>100</ele>
        <time>2019-10-03T15:15:04Z</time>
      </trkpt>
      <trkpt lat="44.05243" lon="4.10805">
        <ele>100</ele>
        <time>2019-10-03T15:15:07Z</time>
      </trkpt>
      <trkpt lat="44.05227" lon="4.10821">
        <ele>101</ele>
        <time>2019-10-03T15:15:11Z</time>
      </trkpt>
      <trkpt lat="44.05215" lon="4.10831">
        <ele>101</ele>
        <time>2019-10-03T15:15:14Z</time>
      </trkpt>
      <trkpt lat="44.05201" lon="4.10837">
        <ele>101</ele>
        <time>2019-10-03T15:15:17Z</time>
      </trkpt>
      <trkpt lat="44.05184" lon="4.10847">
        <ele>101</ele>
        <time>2019-10-03T15:15:21Z</time>
      </trkpt>
      <trkpt lat="44.0516" lon="4.10858">
        <ele>102</ele>
        <time>2019-10-03T15:15:26Z</time>
      </trkpt>
      <trkpt lat="44.05141" lon="4.10869">
        <ele>102</ele>
        <time>2019-10-03T15:15:30Z</time>
      </trkpt>
      <trkpt lat="44.05137" lon="4.10873">
        <ele>102</ele>
        <time>2019-10-03T15:15:31Z</time>
      </trkpt>
      <trkpt lat="44.05129" lon="4.10881">
        <ele>102</ele>
        <time>2019-10-03T15:15:33Z</time>
      </trkpt>
      <trkpt lat="44.05079" lon="4.10888">
        <ele>101</ele>
        <time>2019-10-03T15:15:43Z</time>
      </trkpt>
      <trkpt lat="44.05058" lon="4.10886">
        <ele>100</ele>
        <time>2019-10-03T15:15:47Z</time>
      </trkpt>
      <trkpt lat="44.05035" lon="4.1088">
        <ele>100</ele>
        <time>2019-10-03T15:15:52Z</time>
      </trkpt>
      <trkpt lat="44.05006" lon="4.10871">
        <ele>100</ele>
        <time>2019-10-03T15:15:58Z</time>
      </trkpt>
      <trkpt lat="44.04986" lon="4.10874">
        <ele>100</ele>
        <time>2019-10-03T15:16:02Z</time>
      </trkpt>
      <trkpt lat="44.0497" lon="4.10875">
        <ele>100</ele>
        <time>2019-10-03T15:16:05Z</time>
      </trkpt>
      <trkpt lat="44.04964" lon="4.10874">
        <ele>100</ele>
        <time>2019-10-03T15:16:06Z</time>
      </trkpt>
      <trkpt lat="44.04944" lon="4.10874">
        <ele>100</ele>
        <time>2019-10-03T15:16:10Z</time>
      </trkpt>
      <trkpt lat="44.04939" lon="4.10875">
        <ele>100</ele>
        <time>2019-10-03T15:16:11Z</time>
      </trkpt>
      <trkpt lat="44.04914" lon="4.10886">
        <ele>100</ele>
        <time>2019-10-03T15:16:16Z</time>
      </trkpt>
      <trkpt lat="44.0491" lon="4.10889">
        <ele>100</ele>
        <time>2019-10-03T15:16:17Z</time>
      </trkpt>
      <trkpt lat="44.04901" lon="4.10895">
        <ele>100</ele>
        <time>2019-10-03T15:16:19Z</time>
      </trkpt>
      <trkpt lat="44.04883" lon="4.10901">
        <ele>100</ele>
        <time>2019-10-03T15:16:23Z</time>
      </trkpt>
      <trkpt lat="44.04859" lon="4.10905">
        <ele>100</ele>
        <time>2019-10-03T15:16:28Z</time>
      </trkpt>
      <trkpt lat="44.0485" lon="4.10906">
        <ele>100</ele>
        <time>2019-10-03T15:16:30Z</time>
      </trkpt>
      <trkpt lat="44.04832" lon="4.1091">
        <ele>100</ele>
        <time>2019-10-03T15:16:34Z</time>
      </trkpt>
      <trkpt lat="44.04813" lon="4.1091">
        <ele>100</ele>
        <time>2019-10-03T15:16:38Z</time>
      </trkpt>
      <trkpt lat="44.04796" lon="4.10915">
        <ele>100</ele>
        <time>2019-10-03T15:16:42Z</time>
      </trkpt>
      <trkpt lat="44.04762" lon="4.10913">
        <ele>100</ele>
        <time>2019-10-03T15:16:49Z</time>
      </trkpt>
      <trkpt lat="44.04738" lon="4.10908">
        <ele>100</ele>
        <time>2019-10-03T15:16:54Z</time>
      </trkpt>
      <trkpt lat="44.0473" lon="4.10903">
        <ele>100</ele>
        <time>2019-10-03T15:16:56Z</time>
      </trkpt>
      <trkpt lat="44.04714" lon="4.10893">
        <ele>100</ele>
        <time>2019-10-03T15:17:00Z</time>
      </trkpt>
      <trkpt lat="44.04695" lon="4.10886">
        <ele>100</ele>
        <time>2019-10-03T15:17:04Z</time>
      </trkpt>
      <trkpt lat="44.04683" lon="4.10886">
        <ele>100</ele>
        <time>2019-10-03T15:17:07Z</time>
      </trkpt>
      <trkpt lat="44.0466" lon="4.10894">
        <ele>100</ele>
        <time>2019-10-03T15:17:12Z</time>
      </trkpt>
      <trkpt lat="44.0465" lon="4.10895">
        <ele>100</ele>
        <time>2019-10-03T15:17:14Z</time>
      </trkpt>
      <trkpt lat="44.0464" lon="4.10894">
        <ele>100</ele>
        <time>2019-10-03T15:17:16Z</time>
      </trkpt>
      <trkpt lat="44.04622" lon="4.10886">
        <ele>100</ele>
        <time>2019-10-03T15:17:20Z</time>
      </trkpt>
      <trkpt lat="44.04617" lon="4.10887">
        <ele>100</ele>
        <time>2019-10-03T15:17:21Z</time>
      </trkpt>
      <trkpt lat="44.04609" lon="4.10886">
        <ele>100</ele>
        <time>2019-10-03T15:17:23Z</time>
      </trkpt>
      <trkpt lat="44.04599" lon="4.10878">
        <ele>100</ele>
        <time>2019-10-03T15:17:26Z</time>
      </trkpt>
      <trkpt lat="44.04587" lon="4.10872">
        <ele>100</ele>
        <time>2019-10-03T15:17:29Z</time>
      </trkpt>
      <trkpt lat="44.04569" lon="4.10866">
        <ele>100</ele>
        <time>2019-10-03T15:17:34Z</time>
      </trkpt>
      <trkpt lat="44.04564" lon="4.10865">
        <ele>100</ele>
        <time>2019-10-03T15:17:35Z</time>
      </trkpt>
      <trkpt lat="44.04557" lon="4.10863">
        <ele>100</ele>
        <time>2019-10-03T15:17:37Z</time>
      </trkpt>
      <trkpt lat="44.04534" lon="4.10871">
        <ele>100</ele>
        <time>2019-10-03T15:17:42Z</time>
      </trkpt>
      <trkpt lat="44.04522" lon="4.1088">
        <ele>100</ele>
        <time>2019-10-03T15:17:45Z</time>
      </trkpt>
      <trkpt lat="44.04509" lon="4.10888">
        <ele>100</ele>
        <time>2019-10-03T15:17:48Z</time>
      </trkpt>
      <trkpt lat="44.04491" lon="4.10893">
        <ele>100</ele>
        <time>2019-10-03T15:17:52Z</time>
      </trkpt>
      <trkpt lat="44.04475" lon="4.10904">
        <ele>100</ele>
        <time>2019-10-03T15:17:56Z</time>
      </trkpt>
      <trkpt lat="44.04455" lon="4.10916">
        <ele>100</ele>
        <time>2019-10-03T15:18:01Z</time>
      </trkpt>
      <trkpt lat="44.04438" lon="4.10925">
        <ele>100</ele>
        <time>2019-10-03T15:18:05Z</time>
      </trkpt>
      <trkpt lat="44.04422" lon="4.10934">
        <ele>100</ele>
        <time>2019-10-03T15:18:10Z</time>
      </trkpt>
      <trkpt lat="44.04403" lon="4.10954">
        <ele>100</ele>
        <time>2019-10-03T15:18:15Z</time>
      </trkpt>
      <trkpt lat="44.044" lon="4.10959">
        <ele>100</ele>
        <time>2019-10-03T15:18:16Z</time>
      </trkpt>
      <trkpt lat="44.0439" lon="4.10973">
        <ele>100</ele>
        <time>2019-10-03T15:18:19Z</time>
      </trkpt>
      <trkpt lat="44.04367" lon="4.10987">
        <ele>100</ele>
        <time>2019-10-03T15:18:24Z</time>
      </trkpt>
      <trkpt lat="44.04362" lon="4.10987">
        <ele>100</ele>
        <time>2019-10-03T15:18:25Z</time>
      </trkpt>
      <trkpt lat="44.04352" lon="4.10988">
        <ele>100</ele>
        <time>2019-10-03T15:18:27Z</time>
      </trkpt>
      <trkpt lat="44.0434" lon="4.10987">
        <ele>100</ele>
        <time>2019-10-03T15:18:30Z</time>
      </trkpt>
      <trkpt lat="44.04326" lon="4.10999">
        <ele>100</ele>
        <time>2019-10-03T15:18:34Z</time>
      </trkpt>
      <trkpt lat="44.04317" lon="4.11017">
        <ele>100</ele>
        <time>2019-10-03T15:18:37Z</time>
      </trkpt>
      <trkpt lat="44.04309" lon="4.1104">
        <ele>100</ele>
        <time>2019-10-03T15:18:42Z</time>
      </trkpt>
      <trkpt lat="44.04289" lon="4.11061">
        <ele>100</ele>
        <time>2019-10-03T15:18:47Z</time>
      </trkpt>
      <trkpt lat="44.04276" lon="4.11073">
        <ele>100</ele>
        <time>2019-10-03T15:18:52Z</time>
      </trkpt>
      <trkpt lat="44.04263" lon="4.11086">
        <ele>100</ele>
        <time>2019-10-03T15:18:55Z</time>
      </trkpt>
      <trkpt lat="44.04252" lon="4.11098">
        <ele>100</ele>
        <time>2019-10-03T15:18:59Z</time>
      </trkpt>
      <trkpt lat="44.04236" lon="4.11111">
        <ele>100</ele>
        <time>2019-10-03T15:19:02Z</time>
      </trkpt>
      <trkpt lat="44.04219" lon="4.11134">
        <ele>100</ele>
        <time>2019-10-03T15:19:07Z</time>
      </trkpt>
      <trkpt lat="44.04215" lon="4.11139">
        <ele>100</ele>
        <time>2019-10-03T15:19:09Z</time>
      </trkpt>
      <trkpt lat="44.04199" lon="4.11155">
        <ele>100</ele>
        <time>2019-10-03T15:19:12Z</time>
      </trkpt>
      <trkpt lat="44.04183" lon="4.11172">
        <ele>100</ele>
        <time>2019-10-03T15:19:17Z</time>
      </trkpt>
      <trkpt lat="44.04167" lon="4.11193">
        <ele>100</ele>
        <time>2019-10-03T15:19:22Z</time>
      </trkpt>
      <trkpt lat="44.04158" lon="4.11209">
        <ele>100</ele>
        <time>2019-10-03T15:19:25Z</time>
      </trkpt>
      <trkpt lat="44.0414" lon="4.11228">
        <ele>100</ele>
        <time>2019-10-03T15:19:30Z</time>
      </trkpt>
      <trkpt lat="44.04126" lon="4.11243">
        <ele>99</ele>
        <time>2019-10-03T15:19:34Z</time>
      </trkpt>
      <trkpt lat="44.0409" lon="4.11256">
        <ele>98</ele>
        <time>2019-10-03T15:19:46Z</time>
      </trkpt>
      <trkpt lat="44.04087" lon="4.11255">
        <ele>98</ele>
        <time>2019-10-03T15:19:47Z</time>
      </trkpt>
      <trkpt lat="44.04078" lon="4.11254">
        <ele>98</ele>
        <time>2019-10-03T15:19:49Z</time>
      </trkpt>
      <trkpt lat="44.04055" lon="4.11252">
        <ele>98</ele>
        <time>2019-10-03T15:19:57Z</time>
      </trkpt>
      <trkpt lat="44.04034" lon="4.11249">
        <ele>98</ele>
        <time>2019-10-03T15:20:02Z</time>
      </trkpt>
      <trkpt lat="44.04015" lon="4.11248">
        <ele>98</ele>
        <time>2019-10-03T15:20:07Z</time>
      </trkpt>
      <trkpt lat="44.03996" lon="4.11255">
        <ele>98</ele>
        <time>2019-10-03T15:20:12Z</time>
      </trkpt>
      <trkpt lat="44.03978" lon="4.11266">
        <ele>98</ele>
        <time>2019-10-03T15:20:17Z</time>
      </trkpt>
      <trkpt lat="44.03958" lon="4.11276">
        <ele>98</ele>
        <time>2019-10-03T15:20:22Z</time>
      </trkpt>
      <trkpt lat="44.0394" lon="4.11285">
        <ele>98</ele>
        <time>2019-10-03T15:20:27Z</time>
      </trkpt>
      <trkpt lat="44.03932" lon="4.11289">
        <ele>97</ele>
        <time>2019-10-03T15:20:29Z</time>
      </trkpt>
      <trkpt lat="44.03917" lon="4.11286">
        <ele>97</ele>
        <time>2019-10-03T15:20:32Z</time>
      </trkpt>
      <trkpt lat="44.03913" lon="4.11276">
        <ele>97</ele>
        <time>2019-10-03T15:20:35Z</time>
      </trkpt>
      <trkpt lat="44.03902" lon="4.11258">
        <ele>96</ele>
        <time>2019-10-03T15:20:40Z</time>
      </trkpt>
      <trkpt lat="44.03892" lon="4.11237">
        <ele>96</ele>
        <time>2019-10-03T15:20:45Z</time>
      </trkpt>
      <trkpt lat="44.03886" lon="4.11215">
        <ele>96</ele>
        <time>2019-10-03T15:20:49Z</time>
      </trkpt>
      <trkpt lat="44.03879" lon="4.1121">
        <ele>96</ele>
        <time>2019-10-03T15:20:50Z</time>
      </trkpt>
      <trkpt lat="44.03866" lon="4.11213">
        <ele>96</ele>
        <time>2019-10-03T15:20:54Z</time>
      </trkpt>
      <trkpt lat="44.03845" lon="4.11213">
        <ele>96</ele>
        <time>2019-10-03T15:20:59Z</time>
      </trkpt>
      <trkpt lat="44.03818" lon="4.11212">
        <ele>96</ele>
        <time>2019-10-03T15:21:05Z</time>
      </trkpt>
      <trkpt lat="44.03809" lon="4.11212">
        <ele>96</ele>
        <time>2019-10-03T15:21:07Z</time>
      </trkpt>
      <trkpt lat="44.03793" lon="4.11198">
        <ele>96</ele>
        <time>2019-10-03T15:21:12Z</time>
      </trkpt>
      <trkpt lat="44.03793" lon="4.11181">
        <ele>96</ele>
        <time>2019-10-03T15:21:15Z</time>
      </trkpt>
      <trkpt lat="44.03794" lon="4.11175">
        <ele>96</ele>
        <time>2019-10-03T15:21:16Z</time>
      </trkpt>
      <trkpt lat="44.03795" lon="4.1117">
        <ele>96</ele>
        <time>2019-10-03T15:21:17Z</time>
      </trkpt>
      <trkpt lat="44.03801" lon="4.1114">
        <ele>96</ele>
        <time>2019-10-03T15:21:22Z</time>
      </trkpt>
      <trkpt lat="44.03808" lon="4.11119">
        <ele>96</ele>
        <time>2019-10-03T15:21:25Z</time>
      </trkpt>
      <trkpt lat="44.03807" lon="4.11098">
        <ele>96</ele>
        <time>2019-10-03T15:21:30Z</time>
      </trkpt>
      <trkpt lat="44.03802" lon="4.11076">
        <ele>96</ele>
        <time>2019-10-03T15:21:34Z</time>
      </trkpt>
      <trkpt lat="44.03796" lon="4.11058">
        <ele>96</ele>
        <time>2019-10-03T15:21:37Z</time>
      </trkpt>
      <trkpt lat="44.03786" lon="4.11027">
        <ele>96</ele>
        <time>2019-10-03T15:21:43Z</time>
      </trkpt>
      <trkpt lat="44.03773" lon="4.11015">
        <ele>96</ele>
        <time>2019-10-03T15:21:47Z</time>
      </trkpt>
      <trkpt lat="44.03768" lon="4.11015">
        <ele>96</ele>
        <time>2019-10-03T15:21:49Z</time>
      </trkpt>
      <trkpt lat="44.03756" lon="4.1102">
        <ele>96</ele>
        <time>2019-10-03T15:21:52Z</time>
      </trkpt>
      <trkpt lat="44.03732" lon="4.11031">
        <ele>96</ele>
        <time>2019-10-03T15:21:57Z</time>
      </trkpt>
      <trkpt lat="44.03728" lon="4.11032">
        <ele>96</ele>
        <time>2019-10-03T15:21:59Z</time>
      </trkpt>
      <trkpt lat="44.03715" lon="4.11039">
        <ele>96</ele>
        <time>2019-10-03T15:22:02Z</time>
      </trkpt>
      <trkpt lat="44.03711" lon="4.11054">
        <ele>96</ele>
        <time>2019-10-03T15:22:07Z</time>
      </trkpt>
      <trkpt lat="44.0371" lon="4.11058">
        <ele>96</ele>
        <time>2019-10-03T15:22:07Z</time>
      </trkpt>
      <trkpt lat="44.03704" lon="4.1108">
        <ele>96</ele>
        <time>2019-10-03T15:22:12Z</time>
      </trkpt>
      <trkpt lat="44.03697" lon="4.11099">
        <ele>96</ele>
        <time>2019-10-03T15:22:17Z</time>
      </trkpt>
      <trkpt lat="44.03691" lon="4.11127">
        <ele>96</ele>
        <time>2019-10-03T15:22:22Z</time>
      </trkpt>
      <trkpt lat="44.03687" lon="4.11154">
        <ele>97</ele>
        <time>2019-10-03T15:22:27Z</time>
      </trkpt>
      <trkpt lat="44.03683" lon="4.11179">
        <ele>97</ele>
        <time>2019-10-03T15:22:32Z</time>
      </trkpt>
      <trkpt lat="44.03682" lon="4.11186">
        <ele>97</ele>
        <time>2019-10-03T15:22:32Z</time>
      </trkpt>
      <trkpt lat="44.03682" lon="4.112">
        <ele>97</ele>
        <time>2019-10-03T15:22:35Z</time>
      </trkpt>
      <trkpt lat="44.03678" lon="4.11234">
        <ele>97</ele>
        <time>2019-10-03T15:22:40Z</time>
      </trkpt>
      <trkpt lat="44.03676" lon="4.11248">
        <ele>98</ele>
        <time>2019-10-03T15:22:42Z</time>
      </trkpt>
      <trkpt lat="44.03669" lon="4.11279">
        <ele>98</ele>
        <time>2019-10-03T15:22:48Z</time>
      </trkpt>
      <trkpt lat="44.03662" lon="4.11304">
        <ele>98</ele>
        <time>2019-10-03T15:22:55Z</time>
      </trkpt>
      <trkpt lat="44.03656" lon="4.1133">
        <ele>98</ele>
        <time>2019-10-03T15:23:01Z</time>
      </trkpt>
      <trkpt lat="44.03652" lon="4.11354">
        <ele>98</ele>
        <time>2019-10-03T15:23:05Z</time>
      </trkpt>
      <trkpt lat="44.03644" lon="4.11378">
        <ele>98</ele>
        <time>2019-10-03T15:23:09Z</time>
      </trkpt>
      <trkpt lat="44.03642" lon="4.11383">
        <ele>98</ele>
        <time>2019-10-03T15:23:10Z</time>
      </trkpt>
      <trkpt lat="44.03637" lon="4.11395">
        <ele>98</ele>
        <time>2019-10-03T15:23:12Z</time>
      </trkpt>
      <trkpt lat="44.03629" lon="4.11417">
        <ele>98</ele>
        <time>2019-10-03T15:23:16Z</time>
      </trkpt>
      <trkpt lat="44.03624" lon="4.11428">
        <ele>98</ele>
        <time>2019-10-03T15:23:17Z</time>
      </trkpt>
      <trkpt lat="44.03616" lon="4.11451">
        <ele>98</ele>
        <time>2019-10-03T15:23:22Z</time>
      </trkpt>
      <trkpt lat="44.03607" lon="4.11474">
        <ele>98</ele>
        <time>2019-10-03T15:23:25Z</time>
      </trkpt>
      <trkpt lat="44.03605" lon="4.1148">
        <ele>98</ele>
        <time>2019-10-03T15:23:27Z</time>
      </trkpt>
      <trkpt lat="44.03591" lon="4.11504">
        <ele>98</ele>
        <time>2019-10-03T15:23:31Z</time>
      </trkpt>
      <trkpt lat="44.03588" lon="4.11509">
        <ele>98</ele>
        <time>2019-10-03T15:23:32Z</time>
      </trkpt>
      <trkpt lat="44.03585" lon="4.11515">
        <ele>98</ele>
        <time>2019-10-03T15:23:34Z</time>
      </trkpt>
      <trkpt lat="44.03565" lon="4.11553">
        <ele>98</ele>
        <time>2019-10-03T15:23:42Z</time>
      </trkpt>
      <trkpt lat="44.03541" lon="4.11596">
        <ele>98</ele>
        <time>2019-10-03T15:23:51Z</time>
      </trkpt>
      <trkpt lat="44.03529" lon="4.11621">
        <ele>98</ele>
        <time>2019-10-03T15:23:55Z</time>
      </trkpt>
      <trkpt lat="44.0352" lon="4.11643">
        <ele>98</ele>
        <time>2019-10-03T15:24:00Z</time>
      </trkpt>
      <trkpt lat="44.03509" lon="4.11665">
        <ele>98</ele>
        <time>2019-10-03T15:24:04Z</time>
      </trkpt>
      <trkpt lat="44.035" lon="4.11687">
        <ele>98</ele>
        <time>2019-10-03T15:24:07Z</time>
      </trkpt>
      <trkpt lat="44.03498" lon="4.11693">
        <ele>98</ele>
        <time>2019-10-03T15:24:09Z</time>
      </trkpt>
      <trkpt lat="44.03494" lon="4.11705">
        <ele>98</ele>
        <time>2019-10-03T15:24:11Z</time>
      </trkpt>
      <trkpt lat="44.03487" lon="4.11733">
        <ele>98</ele>
        <time>2019-10-03T15:24:16Z</time>
      </trkpt>
      <trkpt lat="44.0348" lon="4.11767">
        <ele>98</ele>
        <time>2019-10-03T15:24:22Z</time>
      </trkpt>
      <trkpt lat="44.03475" lon="4.11792">
        <ele>98</ele>
        <time>2019-10-03T15:24:26Z</time>
      </trkpt>
      <trkpt lat="44.03474" lon="4.11799">
        <ele>98</ele>
        <time>2019-10-03T15:24:27Z</time>
      </trkpt>
      <trkpt lat="44.03472" lon="4.11811">
        <ele>98</ele>
        <time>2019-10-03T15:24:29Z</time>
      </trkpt>
      <trkpt lat="44.03469" lon="4.11842">
        <ele>98</ele>
        <time>2019-10-03T15:24:34Z</time>
      </trkpt>
      <trkpt lat="44.03467" lon="4.11854">
        <ele>98</ele>
        <time>2019-10-03T15:24:36Z</time>
      </trkpt>
      <trkpt lat="44.03463" lon="4.11872">
        <ele>98</ele>
        <time>2019-10-03T15:24:39Z</time>
      </trkpt>
      <trkpt lat="44.03461" lon="4.11898">
        <ele>98</ele>
        <time>2019-10-03T15:24:43Z</time>
      </trkpt>
      <trkpt lat="44.03461" lon="4.11905">
        <ele>98</ele>
        <time>2019-10-03T15:24:44Z</time>
      </trkpt>
      <trkpt lat="44.0346" lon="4.11943">
        <ele>98</ele>
        <time>2019-10-03T15:24:50Z</time>
      </trkpt>
      <trkpt lat="44.03459" lon="4.11948">
        <ele>98</ele>
        <time>2019-10-03T15:24:51Z</time>
      </trkpt>
      <trkpt lat="44.03452" lon="4.11979">
        <ele>98</ele>
        <time>2019-10-03T15:24:58Z</time>
      </trkpt>
      <trkpt lat="44.03448" lon="4.12001">
        <ele>98</ele>
        <time>2019-10-03T15:25:03Z</time>
      </trkpt>
      <trkpt lat="44.03446" lon="4.12023">
        <ele>98</ele>
        <time>2019-10-03T15:25:07Z</time>
      </trkpt>
      <trkpt lat="44.03444" lon="4.1205">
        <ele>98</ele>
        <time>2019-10-03T15:25:13Z</time>
      </trkpt>
      <trkpt lat="44.03445" lon="4.12076">
        <ele>98</ele>
        <time>2019-10-03T15:25:17Z</time>
      </trkpt>
      <trkpt lat="44.03446" lon="4.12082">
        <ele>98</ele>
        <time>2019-10-03T15:25:18Z</time>
      </trkpt>
      <trkpt lat="44.03444" lon="4.12101">
        <ele>98</ele>
        <time>2019-10-03T15:25:21Z</time>
      </trkpt>
      <trkpt lat="44.03443" lon="4.12133">
        <ele>99</ele>
        <time>2019-10-03T15:25:26Z</time>
      </trkpt>
      <trkpt lat="44.03443" lon="4.12139">
        <ele>99</ele>
        <time>2019-10-03T15:25:27Z</time>
      </trkpt>
      <trkpt lat="44.03443" lon="4.12169">
        <ele>99</ele>
        <time>2019-10-03T15:25:32Z</time>
      </trkpt>
      <trkpt lat="44.03439" lon="4.12193">
        <ele>100</ele>
        <time>2019-10-03T15:25:36Z</time>
      </trkpt>
      <trkpt lat="44.03438" lon="4.12205">
        <ele>100</ele>
        <time>2019-10-03T15:25:37Z</time>
      </trkpt>
      <trkpt lat="44.03436" lon="4.12238">
        <ele>101</ele>
        <time>2019-10-03T15:25:43Z</time>
      </trkpt>
      <trkpt lat="44.03436" lon="4.12244">
        <ele>101</ele>
        <time>2019-10-03T15:25:44Z</time>
      </trkpt>
      <trkpt lat="44.03436" lon="4.12256">
        <ele>101</ele>
        <time>2019-10-03T15:25:46Z</time>
      </trkpt>
      <trkpt lat="44.03435" lon="4.12267">
        <ele>101</ele>
        <time>2019-10-03T15:25:48Z</time>
      </trkpt>
      <trkpt lat="44.0343" lon="4.12295">
        <ele>101</ele>
        <time>2019-10-03T15:25:53Z</time>
      </trkpt>
      <trkpt lat="44.03429" lon="4.123">
        <ele>101</ele>
        <time>2019-10-03T15:25:54Z</time>
      </trkpt>
      <trkpt lat="44.03427" lon="4.12311">
        <ele>102</ele>
        <time>2019-10-03T15:25:56Z</time>
      </trkpt>
      <trkpt lat="44.0342" lon="4.12342">
        <ele>102</ele>
        <time>2019-10-03T15:26:02Z</time>
      </trkpt>
      <trkpt lat="44.03411" lon="4.12366">
        <ele>102</ele>
        <time>2019-10-03T15:26:07Z</time>
      </trkpt>
      <trkpt lat="44.03404" lon="4.12381">
        <ele>102</ele>
        <time>2019-10-03T15:26:10Z</time>
      </trkpt>
      <trkpt lat="44.03399" lon="4.12391">
        <ele>102</ele>
        <time>2019-10-03T15:26:12Z</time>
      </trkpt>
      <trkpt lat="44.03382" lon="4.1241">
        <ele>102</ele>
        <time>2019-10-03T15:26:17Z</time>
      </trkpt>
      <trkpt lat="44.03367" lon="4.12415">
        <ele>102</ele>
        <time>2019-10-03T15:26:21Z</time>
      </trkpt>
      <trkpt lat="44.03351" lon="4.12411">
        <ele>102</ele>
        <time>2019-10-03T15:26:25Z</time>
      </trkpt>
      <trkpt lat="44.03348" lon="4.12408">
        <ele>102</ele>
        <time>2019-10-03T15:26:26Z</time>
      </trkpt>
      <trkpt lat="44.03337" lon="4.12398">
        <ele>102</ele>
        <time>2019-10-03T15:26:29Z</time>
      </trkpt>
      <trkpt lat="44.0333" lon="4.1239">
        <ele>102</ele>
        <time>2019-10-03T15:26:31Z</time>
      </trkpt>
      <trkpt lat="44.03321" lon="4.12373">
        <ele>102</ele>
        <time>2019-10-03T15:26:35Z</time>
      </trkpt>
      <trkpt lat="44.03313" lon="4.12361">
        <ele>102</ele>
        <time>2019-10-03T15:26:37Z</time>
      </trkpt>
      <trkpt lat="44.033" lon="4.12333">
        <ele>102</ele>
        <time>2019-10-03T15:26:44Z</time>
      </trkpt>
      <trkpt lat="44.0329" lon="4.12308">
        <ele>101</ele>
        <time>2019-10-03T15:26:49Z</time>
      </trkpt>
      <trkpt lat="44.03284" lon="4.12286">
        <ele>101</ele>
        <time>2019-10-03T15:26:54Z</time>
      </trkpt>
      <trkpt lat="44.03278" lon="4.12266">
        <ele>100</ele>
        <time>2019-10-03T15:27:00Z</time>
      </trkpt>
      <trkpt lat="44.03276" lon="4.12247">
        <ele>100</ele>
        <time>2019-10-03T15:27:05Z</time>
      </trkpt>
      <trkpt lat="44.03274" lon="4.12227">
        <ele>100</ele>
        <time>2019-10-03T15:27:11Z</time>
      </trkpt>
      <trkpt lat="44.03269" lon="4.12206">
        <ele>100</ele>
        <time>2019-10-03T15:27:17Z</time>
      </trkpt>
      <trkpt lat="44.03265" lon="4.12179">
        <ele>100</ele>
        <time>2019-10-03T15:27:24Z</time>
      </trkpt>
      <trkpt lat="44.03264" lon="4.12162">
        <ele>100</ele>
        <time>2019-10-03T15:27:28Z</time>
      </trkpt>
      <trkpt lat="44.03261" lon="4.12144">
        <ele>100</ele>
        <time>2019-10-03T15:27:31Z</time>
      </trkpt>
      <trkpt lat="44.03257" lon="4.12119">
        <ele>100</ele>
        <time>2019-10-03T15:27:37Z</time>
      </trkpt>
      <trkpt lat="44.03252" lon="4.12093">
        <ele>100</ele>
        <time>2019-10-03T15:27:43Z</time>
      </trkpt>
      <trkpt lat="44.03248" lon="4.12066">
        <ele>100</ele>
        <time>2019-10-03T15:27:48Z</time>
      </trkpt>
      <trkpt lat="44.03244" lon="4.12039">
        <ele>100</ele>
        <time>2019-10-03T15:27:54Z</time>
      </trkpt>
      <trkpt lat="44.03241" lon="4.12017">
        <ele>100</ele>
        <time>2019-10-03T15:27:59Z</time>
      </trkpt>
      <trkpt lat="44.03237" lon="4.11997">
        <ele>100</ele>
        <time>2019-10-03T15:28:03Z</time>
      </trkpt>
      <trkpt lat="44.0323" lon="4.11973">
        <ele>100</ele>
        <time>2019-10-03T15:28:07Z</time>
      </trkpt>
      <trkpt lat="44.03227" lon="4.11947">
        <ele>100</ele>
        <time>2019-10-03T15:28:13Z</time>
      </trkpt>
      <trkpt lat="44.03224" lon="4.11922">
        <ele>100</ele>
        <time>2019-10-03T15:28:18Z</time>
      </trkpt>
      <trkpt lat="44.0322" lon="4.11896">
        <ele>100</ele>
        <time>2019-10-03T15:28:23Z</time>
      </trkpt>
      <trkpt lat="44.03217" lon="4.1187">
        <ele>100</ele>
        <time>2019-10-03T15:28:28Z</time>
      </trkpt>
      <trkpt lat="44.03214" lon="4.11844">
        <ele>100</ele>
        <time>2019-10-03T15:28:33Z</time>
      </trkpt>
      <trkpt lat="44.03208" lon="4.11818">
        <ele>100</ele>
        <time>2019-10-03T15:28:37Z</time>
      </trkpt>
      <trkpt lat="44.03202" lon="4.11791">
        <ele>100</ele>
        <time>2019-10-03T15:28:43Z</time>
      </trkpt>
      <trkpt lat="44.03198" lon="4.11781">
        <ele>100</ele>
        <time>2019-10-03T15:28:45Z</time>
      </trkpt>
      <trkpt lat="44.03188" lon="4.11748">
        <ele>100</ele>
        <time>2019-10-03T15:28:51Z</time>
      </trkpt>
      <trkpt lat="44.03181" lon="4.11725">
        <ele>100</ele>
        <time>2019-10-03T15:28:56Z</time>
      </trkpt>
      <trkpt lat="44.03174" lon="4.117">
        <ele>100</ele>
        <time>2019-10-03T15:29:01Z</time>
      </trkpt>
      <trkpt lat="44.03168" lon="4.11673">
        <ele>100</ele>
        <time>2019-10-03T15:29:06Z</time>
      </trkpt>
      <trkpt lat="44.03164" lon="4.11645">
        <ele>100</ele>
        <time>2019-10-03T15:29:11Z</time>
      </trkpt>
      <trkpt lat="44.03164" lon="4.11639">
        <ele>100</ele>
        <time>2019-10-03T15:29:12Z</time>
      </trkpt>
      <trkpt lat="44.03158" lon="4.11623">
        <ele>100</ele>
        <time>2019-10-03T15:29:15Z</time>
      </trkpt>
      <trkpt lat="44.0315" lon="4.11588">
        <ele>100</ele>
        <time>2019-10-03T15:29:21Z</time>
      </trkpt>
      <trkpt lat="44.03144" lon="4.1156">
        <ele>100</ele>
        <time>2019-10-03T15:29:26Z</time>
      </trkpt>
      <trkpt lat="44.03143" lon="4.11554">
        <ele>100</ele>
        <time>2019-10-03T15:29:27Z</time>
      </trkpt>
      <trkpt lat="44.03139" lon="4.11527">
        <ele>100</ele>
        <time>2019-10-03T15:29:32Z</time>
      </trkpt>
      <trkpt lat="44.03137" lon="4.11517">
        <ele>100</ele>
        <time>2019-10-03T15:29:34Z</time>
      </trkpt>
      <trkpt lat="44.03137" lon="4.11493">
        <ele>100</ele>
        <time>2019-10-03T15:29:39Z</time>
      </trkpt>
      <trkpt lat="44.03135" lon="4.11473">
        <ele>101</ele>
        <time>2019-10-03T15:29:44Z</time>
      </trkpt>
      <trkpt lat="44.03133" lon="4.11451">
        <ele>101</ele>
        <time>2019-10-03T15:29:48Z</time>
      </trkpt>
      <trkpt lat="44.03128" lon="4.11427">
        <ele>102</ele>
        <time>2019-10-03T15:29:54Z</time>
      </trkpt>
      <trkpt lat="44.03124" lon="4.11402">
        <ele>102</ele>
        <time>2019-10-03T15:29:59Z</time>
      </trkpt>
      <trkpt lat="44.03121" lon="4.11377">
        <ele>102</ele>
        <time>2019-10-03T15:30:04Z</time>
      </trkpt>
      <trkpt lat="44.03117" lon="4.11352">
        <ele>102</ele>
        <time>2019-10-03T15:30:09Z</time>
      </trkpt>
      <trkpt lat="44.03112" lon="4.11328">
        <ele>102</ele>
        <time>2019-10-03T15:30:14Z</time>
      </trkpt>
      <trkpt lat="44.03109" lon="4.11305">
        <ele>102</ele>
        <time>2019-10-03T15:30:19Z</time>
      </trkpt>
      <trkpt lat="44.03106" lon="4.11278">
        <ele>102</ele>
        <time>2019-10-03T15:30:25Z</time>
      </trkpt>
      <trkpt lat="44.03107" lon="4.11252">
        <ele>102</ele>
        <time>2019-10-03T15:30:30Z</time>
      </trkpt>
      <trkpt lat="44.03109" lon="4.11228">
        <ele>102</ele>
        <time>2019-10-03T15:30:35Z</time>
      </trkpt>
      <trkpt lat="44.03111" lon="4.1118">
        <ele>102</ele>
        <time>2019-10-03T15:30:45Z</time>
      </trkpt>
      <trkpt lat="44.03108" lon="4.11165">
        <ele>102</ele>
        <time>2019-10-03T15:30:48Z</time>
      </trkpt>
      <trkpt lat="44.03092" lon="4.11159">
        <ele>102</ele>
        <time>2019-10-03T15:30:53Z</time>
      </trkpt>
      <trkpt lat="44.03088" lon="4.11159">
        <ele>102</ele>
        <time>2019-10-03T15:30:54Z</time>
      </trkpt>
      <trkpt lat="44.03073" lon="4.11153">
        <ele>102</ele>
        <time>2019-10-03T15:31:00Z</time>
      </trkpt>
      <trkpt lat="44.03059" lon="4.1115">
        <ele>102</ele>
        <time>2019-10-03T15:31:04Z</time>
      </trkpt>
      <trkpt lat="44.03038" lon="4.1115">
        <ele>102</ele>
        <time>2019-10-03T15:31:08Z</time>
      </trkpt>
      <trkpt lat="44.03018" lon="4.1115">
        <ele>102</ele>
        <time>2019-10-03T15:31:13Z</time>
      </trkpt>
      <trkpt lat="44.02999" lon="4.1115">
        <ele>102</ele>
        <time>2019-10-03T15:31:17Z</time>
      </trkpt>
      <trkpt lat="44.02979" lon="4.1115">
        <ele>102</ele>
        <time>2019-10-03T15:31:21Z</time>
      </trkpt>
      <trkpt lat="44.02959" lon="4.1115">
        <ele>102</ele>
        <time>2019-10-03T15:31:25Z</time>
      </trkpt>
      <trkpt lat="44.02938" lon="4.1115">
        <ele>102</ele>
        <time>2019-10-03T15:31:29Z</time>
      </trkpt>
      <trkpt lat="44.02917" lon="4.1115">
        <ele>102</ele>
        <time>2019-10-03T15:31:32Z</time>
      </trkpt>
      <trkpt lat="44.02895" lon="4.1115">
        <ele>102</ele>
        <time>2019-10-03T15:31:37Z</time>
      </trkpt>
      <trkpt lat="44.02875" lon="4.1115">
        <ele>102</ele>
        <time>2019-10-03T15:31:40Z</time>
      </trkpt>
      <trkpt lat="44.02855" lon="4.1115">
        <ele>102</ele>
        <time>2019-10-03T15:31:43Z</time>
      </trkpt>
      <trkpt lat="44.0283" lon="4.11151">
        <ele>102</ele>
        <time>2019-10-03T15:31:48Z</time>
      </trkpt>
      <trkpt lat="44.02806" lon="4.1115">
        <ele>102</ele>
        <time>2019-10-03T15:31:52Z</time>
      </trkpt>
      <trkpt lat="44.02788" lon="4.1115">
        <ele>102</ele>
        <time>2019-10-03T15:31:55Z</time>
      </trkpt>
      <trkpt lat="44.0277" lon="4.1115">
        <ele>102</ele>
        <time>2019-10-03T15:31:58Z</time>
      </trkpt>
      <trkpt lat="44.02757" lon="4.1114">
        <ele>102</ele>
        <time>2019-10-03T15:32:01Z</time>
      </trkpt>
      <trkpt lat="44.02755" lon="4.11127">
        <ele>102</ele>
        <time>2019-10-03T15:32:04Z</time>
      </trkpt>
      <trkpt lat="44.0275" lon="4.11094">
        <ele>102</ele>
        <time>2019-10-03T15:32:07Z</time>
      </trkpt>
      <trkpt lat="44.02749" lon="4.11085">
        <ele>102</ele>
        <time>2019-10-03T15:32:09Z</time>
      </trkpt>
      <trkpt lat="44.02756" lon="4.1107">
        <ele>101</ele>
        <time>2019-10-03T15:32:12Z</time>
      </trkpt>
      <trkpt lat="44.02759" lon="4.11071">
        <ele>101</ele>
        <time>2019-10-03T15:32:14Z</time>
      </trkpt>
      <trkpt lat="44.02767" lon="4.11072">
        <ele>101</ele>
        <time>2019-10-03T15:32:16Z</time>
      </trkpt>
      <trkpt lat="44.02779" lon="4.11072">
        <ele>101</ele>
        <time>2019-10-03T15:32:19Z</time>
      </trkpt>
      <trkpt lat="44.02798" lon="4.11058">
        <ele>100</ele>
        <time>2019-10-03T15:32:24Z</time>
      </trkpt>
      <trkpt lat="44.02802" lon="4.11049">
        <ele>99</ele>
        <time>2019-10-03T15:32:26Z</time>
      </trkpt>
      <trkpt lat="44.02808" lon="4.11034">
        <ele>99</ele>
        <time>2019-10-03T15:32:29Z</time>
      </trkpt>
      <trkpt lat="44.02821" lon="4.11007">
        <ele>98</ele>
        <time>2019-10-03T15:32:36Z</time>
      </trkpt>
      <trkpt lat="44.02834" lon="4.11005">
        <ele>97</ele>
        <time>2019-10-03T15:32:40Z</time>
      </trkpt>
      <trkpt lat="44.02847" lon="4.10996">
        <ele>97</ele>
        <time>2019-10-03T15:32:44Z</time>
      </trkpt>
      <trkpt lat="44.02865" lon="4.10986">
        <ele>96</ele>
        <time>2019-10-03T15:32:49Z</time>
      </trkpt>
      <trkpt lat="44.02874" lon="4.10984">
        <ele>96</ele>
        <time>2019-10-03T15:32:51Z</time>
      </trkpt>
      <trkpt lat="44.0288" lon="4.10962">
        <ele>96</ele>
        <time>2019-10-03T15:32:55Z</time>
      </trkpt>
      <trkpt lat="44.02879" lon="4.1095">
        <ele>96</ele>
        <time>2019-10-03T15:32:57Z</time>
      </trkpt>
      <trkpt lat="44.02877" lon="4.10931">
        <ele>96</ele>
        <time>2019-10-03T15:33:00Z</time>
      </trkpt>
      <trkpt lat="44.02877" lon="4.10912">
        <ele>96</ele>
        <time>2019-10-03T15:33:02Z</time>
      </trkpt>
      <trkpt lat="44.02878" lon="4.10888">
        <ele>96</ele>
        <time>2019-10-03T15:33:07Z</time>
      </trkpt>
      <trkpt lat="44.02878" lon="4.10876">
        <ele>96</ele>
        <time>2019-10-03T15:33:09Z</time>
      </trkpt>
      <trkpt lat="44.02877" lon="4.10864">
        <ele>96</ele>
        <time>2019-10-03T15:33:11Z</time>
      </trkpt>
      <trkpt lat="44.02881" lon="4.10833">
        <ele>96</ele>
        <time>2019-10-03T15:33:16Z</time>
      </trkpt>
      <trkpt lat="44.02883" lon="4.1082">
        <ele>96</ele>
        <time>2019-10-03T15:33:18Z</time>
      </trkpt>
      <trkpt lat="44.02891" lon="4.10784">
        <ele>96</ele>
        <time>2019-10-03T15:33:24Z</time>
      </trkpt>
      <trkpt lat="44.02896" lon="4.1076">
        <ele>96</ele>
        <time>2019-10-03T15:33:27Z</time>
      </trkpt>
      <trkpt lat="44.029" lon="4.10739">
        <ele>96</ele>
        <time>2019-10-03T15:33:32Z</time>
      </trkpt>
      <trkpt lat="44.02901" lon="4.10735">
        <ele>96</ele>
        <time>2019-10-03T15:33:32Z</time>
      </trkpt>
      <trkpt lat="44.02904" lon="4.10713">
        <ele>95</ele>
        <time>2019-10-03T15:33:37Z</time>
      </trkpt>
      <trkpt lat="44.02923" lon="4.10657">
        <ele>94</ele>
        <time>2019-10-03T15:33:51Z</time>
      </trkpt>
      <trkpt lat="44.02931" lon="4.10636">
        <ele>94</ele>
        <time>2019-10-03T15:33:56Z</time>
      </trkpt>
      <trkpt lat="44.02945" lon="4.10615">
        <ele>94</ele>
        <time>2019-10-03T15:34:00Z</time>
      </trkpt>
      <trkpt lat="44.02947" lon="4.10609">
        <ele>94</ele>
        <time>2019-10-03T15:34:01Z</time>
      </trkpt>
      <trkpt lat="44.02952" lon="4.10583">
        <ele>93</ele>
        <time>2019-10-03T15:34:05Z</time>
      </trkpt>
      <trkpt lat="44.02954" lon="4.10574">
        <ele>93</ele>
        <time>2019-10-03T15:34:07Z</time>
      </trkpt>
      <trkpt lat="44.02955" lon="4.10555">
        <ele>92</ele>
        <time>2019-10-03T15:34:11Z</time>
      </trkpt>
      <trkpt lat="44.02952" lon="4.10525">
        <ele>92</ele>
        <time>2019-10-03T15:34:17Z</time>
      </trkpt>
      <trkpt lat="44.02953" lon="4.10509">
        <ele>92</ele>
        <time>2019-10-03T15:34:20Z</time>
      </trkpt>
      <trkpt lat="44.02965" lon="4.10498">
        <ele>92</ele>
        <time>2019-10-03T15:34:24Z</time>
      </trkpt>
      <trkpt lat="44.02969" lon="4.10498">
        <ele>92</ele>
        <time>2019-10-03T15:34:25Z</time>
      </trkpt>
      <trkpt lat="44.02983" lon="4.10489">
        <ele>92</ele>
        <time>2019-10-03T15:34:30Z</time>
      </trkpt>
      <trkpt lat="44.02993" lon="4.10466">
        <ele>92</ele>
        <time>2019-10-03T15:34:35Z</time>
      </trkpt>
      <trkpt lat="44.02995" lon="4.1046">
        <ele>92</ele>
        <time>2019-10-03T15:34:36Z</time>
      </trkpt>
      <trkpt lat="44.02994" lon="4.10433">
        <ele>93</ele>
        <time>2019-10-03T15:34:43Z</time>
      </trkpt>
      <trkpt lat="44.02994" lon="4.10404">
        <ele>93</ele>
        <time>2019-10-03T15:34:49Z</time>
      </trkpt>
      <trkpt lat="44.03" lon="4.10381">
        <ele>93</ele>
        <time>2019-10-03T15:34:54Z</time>
      </trkpt>
      <trkpt lat="44.03002" lon="4.10356">
        <ele>93</ele>
        <time>2019-10-03T15:34:59Z</time>
      </trkpt>
      <trkpt lat="44.03002" lon="4.1033">
        <ele>93</ele>
        <time>2019-10-03T15:35:04Z</time>
      </trkpt>
      <trkpt lat="44.03003" lon="4.103">
        <ele>94</ele>
        <time>2019-10-03T15:35:10Z</time>
      </trkpt>
      <trkpt lat="44.03004" lon="4.10271">
        <ele>95</ele>
        <time>2019-10-03T15:35:16Z</time>
      </trkpt>
      <trkpt lat="44.03006" lon="4.10251">
        <ele>95</ele>
        <time>2019-10-03T15:35:21Z</time>
      </trkpt>
      <trkpt lat="44.03006" lon="4.1023">
        <ele>95</ele>
        <time>2019-10-03T15:35:26Z</time>
      </trkpt>
      <trkpt lat="44.03008" lon="4.10204">
        <ele>95</ele>
        <time>2019-10-03T15:35:31Z</time>
      </trkpt>
      <trkpt lat="44.03003" lon="4.10185">
        <ele>95</ele>
        <time>2019-10-03T15:35:35Z</time>
      </trkpt>
      <trkpt lat="44.0297" lon="4.1016">
        <ele>95</ele>
        <time>2019-10-03T15:35:45Z</time>
      </trkpt>
      <trkpt lat="44.02946" lon="4.10157">
        <ele>96</ele>
        <time>2019-10-03T15:35:51Z</time>
      </trkpt>
      <trkpt lat="44.02941" lon="4.10157">
        <ele>96</ele>
        <time>2019-10-03T15:35:52Z</time>
      </trkpt>
      <trkpt lat="44.0292" lon="4.10158">
        <ele>96</ele>
        <time>2019-10-03T15:35:57Z</time>
      </trkpt>
      <trkpt lat="44.02904" lon="4.10155">
        <ele>96</ele>
        <time>2019-10-03T15:36:01Z</time>
      </trkpt>
      <trkpt lat="44.02897" lon="4.10142">
        <ele>96</ele>
        <time>2019-10-03T15:36:05Z</time>
      </trkpt>
      <trkpt lat="44.02903" lon="4.10137">
        <ele>96</ele>
        <time>2019-10-03T15:36:07Z</time>
      </trkpt>
      <trkpt lat="44.0292" lon="4.10114">
        <ele>96</ele>
        <time>2019-10-03T15:36:13Z</time>
      </trkpt>
      <trkpt lat="44.02931" lon="4.10097">
        <ele>96</ele>
        <time>2019-10-03T15:36:18Z</time>
      </trkpt>
      <trkpt lat="44.0294" lon="4.10085">
        <ele>96</ele>
        <time>2019-10-03T15:36:22Z</time>
      </trkpt>
      <trkpt lat="44.02947" lon="4.10066">
        <ele>96</ele>
        <time>2019-10-03T15:36:26Z</time>
      </trkpt>
      <trkpt lat="44.02946" lon="4.10037">
        <ele>96</ele>
        <time>2019-10-03T15:36:31Z</time>
      </trkpt>
      <trkpt lat="44.02947" lon="4.10032">
        <ele>96</ele>
        <time>2019-10-03T15:36:32Z</time>
      </trkpt>
      <trkpt lat="44.0295" lon="4.10005">
        <ele>96</ele>
        <time>2019-10-03T15:36:37Z</time>
      </trkpt>
      <trkpt lat="44.0295" lon="4.09977">
        <ele>96</ele>
        <time>2019-10-03T15:36:41Z</time>
      </trkpt>
      <trkpt lat="44.0295" lon="4.09964">
        <ele>96</ele>
        <time>2019-10-03T15:36:44Z</time>
      </trkpt>
      <trkpt lat="44.02945" lon="4.09907">
        <ele>96</ele>
        <time>2019-10-03T15:36:54Z</time>
      </trkpt>
      <trkpt lat="44.02935" lon="4.09882">
        <ele>96</ele>
        <time>2019-10-03T15:36:59Z</time>
      </trkpt>
      <trkpt lat="44.02929" lon="4.09855">
        <ele>96</ele>
        <time>2019-10-03T15:37:04Z</time>
      </trkpt>
      <trkpt lat="44.02928" lon="4.09833">
        <ele>96</ele>
        <time>2019-10-03T15:37:07Z</time>
      </trkpt>
      <trkpt lat="44.02922" lon="4.09806">
        <ele>96</ele>
        <time>2019-10-03T15:37:13Z</time>
      </trkpt>
      <trkpt lat="44.02918" lon="4.09789">
        <ele>96</ele>
        <time>2019-10-03T15:37:16Z</time>
      </trkpt>
      <trkpt lat="44.02907" lon="4.09759">
        <ele>96</ele>
        <time>2019-10-03T15:37:22Z</time>
      </trkpt>
      <trkpt lat="44.02906" lon="4.09754">
        <ele>96</ele>
        <time>2019-10-03T15:37:23Z</time>
      </trkpt>
      <trkpt lat="44.02906" lon="4.09738">
        <ele>96</ele>
        <time>2019-10-03T15:37:26Z</time>
      </trkpt>
      <trkpt lat="44.02908" lon="4.09705">
        <ele>96</ele>
        <time>2019-10-03T15:37:32Z</time>
      </trkpt>
      <trkpt lat="44.02906" lon="4.09682">
        <ele>96</ele>
        <time>2019-10-03T15:37:37Z</time>
      </trkpt>
      <trkpt lat="44.02903" lon="4.09654">
        <ele>96</ele>
        <time>2019-10-03T15:37:43Z</time>
      </trkpt>
      <trkpt lat="44.02893" lon="4.09633">
        <ele>96</ele>
        <time>2019-10-03T15:37:48Z</time>
      </trkpt>
      <trkpt lat="44.0288" lon="4.09618">
        <ele>96</ele>
        <time>2019-10-03T15:37:53Z</time>
      </trkpt>
      <trkpt lat="44.02874" lon="4.09608">
        <ele>96</ele>
        <time>2019-10-03T15:37:56Z</time>
      </trkpt>
      <trkpt lat="44.02875" lon="4.0959">
        <ele>96</ele>
        <time>2019-10-03T15:38:00Z</time>
      </trkpt>
      <trkpt lat="44.02876" lon="4.09578">
        <ele>96</ele>
        <time>2019-10-03T15:38:05Z</time>
      </trkpt>
      <trkpt lat="44.02877" lon="4.09575">
        <ele>96</ele>
        <time>2019-10-03T15:38:06Z</time>
      </trkpt>
      <trkpt lat="44.02878" lon="4.09571">
        <ele>96</ele>
        <time>2019-10-03T15:38:07Z</time>
      </trkpt>
      <trkpt lat="44.02878" lon="4.09554">
        <ele>96</ele>
        <time>2019-10-03T15:38:11Z</time>
      </trkpt>
      <trkpt lat="44.02883" lon="4.09521">
        <ele>96</ele>
        <time>2019-10-03T15:38:18Z</time>
      </trkpt>
      <trkpt lat="44.02887" lon="4.09495">
        <ele>96</ele>
        <time>2019-10-03T15:38:23Z</time>
      </trkpt>
      <trkpt lat="44.02893" lon="4.0947">
        <ele>96</ele>
        <time>2019-10-03T15:38:28Z</time>
      </trkpt>
      <trkpt lat="44.02898" lon="4.09442">
        <ele>96</ele>
        <time>2019-10-03T15:38:33Z</time>
      </trkpt>
      <trkpt lat="44.02901" lon="4.09416">
        <ele>96</ele>
        <time>2019-10-03T15:38:37Z</time>
      </trkpt>
      <trkpt lat="44.02902" lon="4.09388">
        <ele>96</ele>
        <time>2019-10-03T15:38:43Z</time>
      </trkpt>
      <trkpt lat="44.02902" lon="4.09375">
        <ele>96</ele>
        <time>2019-10-03T15:38:45Z</time>
      </trkpt>
      <trkpt lat="44.02904" lon="4.09345">
        <ele>96</ele>
        <time>2019-10-03T15:38:50Z</time>
      </trkpt>
      <trkpt lat="44.02904" lon="4.09339">
        <ele>96</ele>
        <time>2019-10-03T15:38:51Z</time>
      </trkpt>
      <trkpt lat="44.02903" lon="4.09329">
        <ele>96</ele>
        <time>2019-10-03T15:38:53Z</time>
      </trkpt>
      <trkpt lat="44.02902" lon="4.0931">
        <ele>96</ele>
        <time>2019-10-03T15:38:57Z</time>
      </trkpt>
      <trkpt lat="44.02902" lon="4.09285">
        <ele>96</ele>
        <time>2019-10-03T15:39:03Z</time>
      </trkpt>
      <trkpt lat="44.02899" lon="4.09254">
        <ele>96</ele>
        <time>2019-10-03T15:39:09Z</time>
      </trkpt>
      <trkpt lat="44.02899" lon="4.09227">
        <ele>96</ele>
        <time>2019-10-03T15:39:14Z</time>
      </trkpt>
      <trkpt lat="44.029" lon="4.09198">
        <ele>96</ele>
        <time>2019-10-03T15:39:19Z</time>
      </trkpt>
      <trkpt lat="44.02903" lon="4.09171">
        <ele>96</ele>
        <time>2019-10-03T15:39:24Z</time>
      </trkpt>
      <trkpt lat="44.02905" lon="4.09145">
        <ele>96</ele>
        <time>2019-10-03T15:39:29Z</time>
      </trkpt>
      <trkpt lat="44.02903" lon="4.0912">
        <ele>97</ele>
        <time>2019-10-03T15:39:34Z</time>
      </trkpt>
      <trkpt lat="44.02903" lon="4.09095">
        <ele>97</ele>
        <time>2019-10-03T15:39:39Z</time>
      </trkpt>
      <trkpt lat="44.02901" lon="4.0907">
        <ele>98</ele>
        <time>2019-10-03T15:39:44Z</time>
      </trkpt>
      <trkpt lat="44.02901" lon="4.09043">
        <ele>99</ele>
        <time>2019-10-03T15:39:49Z</time>
      </trkpt>
      <trkpt lat="44.029" lon="4.09013">
        <ele>100</ele>
        <time>2019-10-03T15:39:55Z</time>
      </trkpt>
      <trkpt lat="44.02899" lon="4.0899">
        <ele>101</ele>
        <time>2019-10-03T15:40:01Z</time>
      </trkpt>
      <trkpt lat="44.02899" lon="4.08966">
        <ele>101</ele>
        <time>2019-10-03T15:40:07Z</time>
      </trkpt>
      <trkpt lat="44.029" lon="4.08943">
        <ele>102</ele>
        <time>2019-10-03T15:40:14Z</time>
      </trkpt>
      <trkpt lat="44.02898" lon="4.08915">
        <ele>102</ele>
        <time>2019-10-03T15:40:21Z</time>
      </trkpt>
      <trkpt lat="44.02899" lon="4.08893">
        <ele>102</ele>
        <time>2019-10-03T15:40:26Z</time>
      </trkpt>
      <trkpt lat="44.02899" lon="4.08863">
        <ele>102</ele>
        <time>2019-10-03T15:40:32Z</time>
      </trkpt>
      <trkpt lat="44.02899" lon="4.08838">
        <ele>102</ele>
        <time>2019-10-03T15:40:37Z</time>
      </trkpt>
      <trkpt lat="44.02898" lon="4.08812">
        <ele>102</ele>
        <time>2019-10-03T15:40:42Z</time>
      </trkpt>
      <trkpt lat="44.02897" lon="4.08787">
        <ele>102</ele>
        <time>2019-10-03T15:40:47Z</time>
      </trkpt>
      <trkpt lat="44.02897" lon="4.08761">
        <ele>102</ele>
        <time>2019-10-03T15:40:52Z</time>
      </trkpt>
      <trkpt lat="44.02894" lon="4.08736">
        <ele>102</ele>
        <time>2019-10-03T15:40:57Z</time>
      </trkpt>
      <trkpt lat="44.02891" lon="4.08716">
        <ele>102</ele>
        <time>2019-10-03T15:41:01Z</time>
      </trkpt>
      <trkpt lat="44.02885" lon="4.08689">
        <ele>102</ele>
        <time>2019-10-03T15:41:06Z</time>
      </trkpt>
      <trkpt lat="44.02877" lon="4.08674">
        <ele>102</ele>
        <time>2019-10-03T15:41:09Z</time>
      </trkpt>
      <trkpt lat="44.02863" lon="4.08651">
        <ele>102</ele>
        <time>2019-10-03T15:41:14Z</time>
      </trkpt>
      <trkpt lat="44.02846" lon="4.08625">
        <ele>102</ele>
        <time>2019-10-03T15:41:19Z</time>
      </trkpt>
      <trkpt lat="44.02831" lon="4.08605">
        <ele>102</ele>
        <time>2019-10-03T15:41:23Z</time>
      </trkpt>
      <trkpt lat="44.02816" lon="4.08585">
        <ele>102</ele>
        <time>2019-10-03T15:41:27Z</time>
      </trkpt>
      <trkpt lat="44.02801" lon="4.08565">
        <ele>102</ele>
        <time>2019-10-03T15:41:31Z</time>
      </trkpt>
      <trkpt lat="44.02786" lon="4.08544">
        <ele>102</ele>
        <time>2019-10-03T15:41:35Z</time>
      </trkpt>
      <trkpt lat="44.02772" lon="4.08522">
        <ele>102</ele>
        <time>2019-10-03T15:41:39Z</time>
      </trkpt>
      <trkpt lat="44.02768" lon="4.08513">
        <ele>102</ele>
        <time>2019-10-03T15:41:40Z</time>
      </trkpt>
      <trkpt lat="44.02758" lon="4.08491">
        <ele>102</ele>
        <time>2019-10-03T15:41:44Z</time>
      </trkpt>
      <trkpt lat="44.02748" lon="4.08464">
        <ele>102</ele>
        <time>2019-10-03T15:41:48Z</time>
      </trkpt>
      <trkpt lat="44.02739" lon="4.08435">
        <ele>102</ele>
        <time>2019-10-03T15:41:52Z</time>
      </trkpt>
      <trkpt lat="44.02733" lon="4.08408">
        <ele>102</ele>
        <time>2019-10-03T15:41:56Z</time>
      </trkpt>
      <trkpt lat="44.02726" lon="4.08379">
        <ele>102</ele>
        <time>2019-10-03T15:42:00Z</time>
      </trkpt>
      <trkpt lat="44.02719" lon="4.0835">
        <ele>102</ele>
        <time>2019-10-03T15:42:04Z</time>
      </trkpt>
      <trkpt lat="44.02712" lon="4.08322">
        <ele>102</ele>
        <time>2019-10-03T15:42:07Z</time>
      </trkpt>
      <trkpt lat="44.02706" lon="4.08295">
        <ele>102</ele>
        <time>2019-10-03T15:42:12Z</time>
      </trkpt>
      <trkpt lat="44.027" lon="4.08268">
        <ele>102</ele>
        <time>2019-10-03T15:42:16Z</time>
      </trkpt>
      <trkpt lat="44.02693" lon="4.0824">
        <ele>102</ele>
        <time>2019-10-03T15:42:20Z</time>
      </trkpt>
      <trkpt lat="44.02691" lon="4.08219">
        <ele>102</ele>
        <time>2019-10-03T15:42:23Z</time>
      </trkpt>
      <trkpt lat="44.0269" lon="4.08184">
        <ele>102</ele>
        <time>2019-10-03T15:42:28Z</time>
      </trkpt>
      <trkpt lat="44.0269" lon="4.08178">
        <ele>102</ele>
        <time>2019-10-03T15:42:29Z</time>
      </trkpt>
      <trkpt lat="44.02682" lon="4.08158">
        <ele>102</ele>
        <time>2019-10-03T15:42:33Z</time>
      </trkpt>
      <trkpt lat="44.0268" lon="4.08147">
        <ele>102</ele>
        <time>2019-10-03T15:42:35Z</time>
      </trkpt>
      <trkpt lat="44.02678" lon="4.08136">
        <ele>102</ele>
        <time>2019-10-03T15:42:37Z</time>
      </trkpt>
      <trkpt lat="44.02667" lon="4.08105">
        <ele>102</ele>
        <time>2019-10-03T15:42:43Z</time>
      </trkpt>
      <trkpt lat="44.02663" lon="4.08096">
        <ele>102</ele>
        <time>2019-10-03T15:42:45Z</time>
      </trkpt>
      <trkpt lat="44.02652" lon="4.08066">
        <ele>102</ele>
        <time>2019-10-03T15:42:51Z</time>
      </trkpt>
      <trkpt lat="44.02642" lon="4.08042">
        <ele>102</ele>
        <time>2019-10-03T15:42:56Z</time>
      </trkpt>
      <trkpt lat="44.02637" lon="4.08027">
        <ele>102</ele>
        <time>2019-10-03T15:42:59Z</time>
      </trkpt>
      <trkpt lat="44.02634" lon="4.07996">
        <ele>102</ele>
        <time>2019-10-03T15:43:06Z</time>
      </trkpt>
      <trkpt lat="44.02636" lon="4.07967">
        <ele>102</ele>
        <time>2019-10-03T15:43:11Z</time>
      </trkpt>
      <trkpt lat="44.02639" lon="4.07942">
        <ele>102</ele>
        <time>2019-10-03T15:43:15Z</time>
      </trkpt>
      <trkpt lat="44.02641" lon="4.07935">
        <ele>102</ele>
        <time>2019-10-03T15:43:16Z</time>
      </trkpt>
      <trkpt lat="44.02643" lon="4.07921">
        <ele>102</ele>
        <time>2019-10-03T15:43:18Z</time>
      </trkpt>
      <trkpt lat="44.02649" lon="4.0789">
        <ele>102</ele>
        <time>2019-10-03T15:43:22Z</time>
      </trkpt>
      <trkpt lat="44.02652" lon="4.07862">
        <ele>102</ele>
        <time>2019-10-03T15:43:26Z</time>
      </trkpt>
      <trkpt lat="44.02644" lon="4.07835">
        <ele>102</ele>
        <time>2019-10-03T15:43:30Z</time>
      </trkpt>
      <trkpt lat="44.02637" lon="4.07816">
        <ele>102</ele>
        <time>2019-10-03T15:43:33Z</time>
      </trkpt>
      <trkpt lat="44.02628" lon="4.07794">
        <ele>102</ele>
        <time>2019-10-03T15:43:36Z</time>
      </trkpt>
      <trkpt lat="44.02614" lon="4.07767">
        <ele>102</ele>
        <time>2019-10-03T15:43:41Z</time>
      </trkpt>
      <trkpt lat="44.02602" lon="4.07744">
        <ele>102</ele>
        <time>2019-10-03T15:43:45Z</time>
      </trkpt>
      <trkpt lat="44.02596" lon="4.07732">
        <ele>102</ele>
        <time>2019-10-03T15:43:47Z</time>
      </trkpt>
      <trkpt lat="44.0259" lon="4.07707">
        <ele>102</ele>
        <time>2019-10-03T15:43:51Z</time>
      </trkpt>
      <trkpt lat="44.02582" lon="4.07675">
        <ele>102</ele>
        <time>2019-10-03T15:43:56Z</time>
      </trkpt>
      <trkpt lat="44.0258" lon="4.07669">
        <ele>102</ele>
        <time>2019-10-03T15:43:57Z</time>
      </trkpt>
      <trkpt lat="44.02574" lon="4.07643">
        <ele>102</ele>
        <time>2019-10-03T15:44:01Z</time>
      </trkpt>
      <trkpt lat="44.02569" lon="4.07618">
        <ele>102</ele>
        <time>2019-10-03T15:44:05Z</time>
      </trkpt>
      <trkpt lat="44.02566" lon="4.07604">
        <ele>102</ele>
        <time>2019-10-03T15:44:07Z</time>
      </trkpt>
      <trkpt lat="44.02559" lon="4.07585">
        <ele>102</ele>
        <time>2019-10-03T15:44:10Z</time>
      </trkpt>
      <trkpt lat="44.02547" lon="4.07564">
        <ele>102</ele>
        <time>2019-10-03T15:44:14Z</time>
      </trkpt>
      <trkpt lat="44.02539" lon="4.07555">
        <ele>102</ele>
        <time>2019-10-03T15:44:16Z</time>
      </trkpt>
      <trkpt lat="44.02526" lon="4.07543">
        <ele>102</ele>
        <time>2019-10-03T15:44:19Z</time>
      </trkpt>
      <trkpt lat="44.02509" lon="4.07517">
        <ele>102</ele>
        <time>2019-10-03T15:44:24Z</time>
      </trkpt>
      <trkpt lat="44.02503" lon="4.07505">
        <ele>102</ele>
        <time>2019-10-03T15:44:26Z</time>
      </trkpt>
      <trkpt lat="44.02492" lon="4.07475">
        <ele>102</ele>
        <time>2019-10-03T15:44:31Z</time>
      </trkpt>
      <trkpt lat="44.02489" lon="4.07469">
        <ele>102</ele>
        <time>2019-10-03T15:44:31Z</time>
      </trkpt>
      <trkpt lat="44.02481" lon="4.07445">
        <ele>102</ele>
        <time>2019-10-03T15:44:36Z</time>
      </trkpt>
      <trkpt lat="44.02476" lon="4.07431">
        <ele>102</ele>
        <time>2019-10-03T15:44:39Z</time>
      </trkpt>
      <trkpt lat="44.02466" lon="4.07403">
        <ele>102</ele>
        <time>2019-10-03T15:44:45Z</time>
      </trkpt>
      <trkpt lat="44.02463" lon="4.07396">
        <ele>102</ele>
        <time>2019-10-03T15:44:47Z</time>
      </trkpt>
      <trkpt lat="44.02454" lon="4.07383">
        <ele>102</ele>
        <time>2019-10-03T15:44:53Z</time>
      </trkpt>
      <trkpt lat="44.02453" lon="4.07383">
        <ele>103</ele>
        <time>2019-10-03T15:44:59Z</time>
      </trkpt>
      <trkpt lat="44.02449" lon="4.07382">
        <ele>103</ele>
        <time>2019-10-03T15:45:04Z</time>
      </trkpt>
      <trkpt lat="44.02442" lon="4.07397">
        <ele>103</ele>
        <time>2019-10-03T15:45:08Z</time>
      </trkpt>
      <trkpt lat="44.02441" lon="4.07404">
        <ele>103</ele>
        <time>2019-10-03T15:45:09Z</time>
      </trkpt>
      <trkpt lat="44.02435" lon="4.07434">
        <ele>104</ele>
        <time>2019-10-03T15:45:14Z</time>
      </trkpt>
      <trkpt lat="44.02428" lon="4.07459">
        <ele>104</ele>
        <time>2019-10-03T15:45:18Z</time>
      </trkpt>
      <trkpt lat="44.02421" lon="4.07486">
        <ele>104</ele>
        <time>2019-10-03T15:45:22Z</time>
      </trkpt>
      <trkpt lat="44.02414" lon="4.07513">
        <ele>104</ele>
        <time>2019-10-03T15:45:26Z</time>
      </trkpt>
      <trkpt lat="44.02411" lon="4.07517">
        <ele>104</ele>
        <time>2019-10-03T15:45:27Z</time>
      </trkpt>
      <trkpt lat="44.024" lon="4.07517">
        <ele>104</ele>
        <time>2019-10-03T15:45:30Z</time>
      </trkpt>
      <trkpt lat="44.02396" lon="4.07515">
        <ele>104</ele>
        <time>2019-10-03T15:45:31Z</time>
      </trkpt>
      <trkpt lat="44.02378" lon="4.0751">
        <ele>104</ele>
        <time>2019-10-03T15:45:35Z</time>
      </trkpt>
      <trkpt lat="44.02375" lon="4.07508">
        <ele>104</ele>
        <time>2019-10-03T15:45:35Z</time>
      </trkpt>
      <trkpt lat="44.02353" lon="4.075">
        <ele>104</ele>
        <time>2019-10-03T15:45:40Z</time>
      </trkpt>
      <trkpt lat="44.02331" lon="4.07493">
        <ele>104</ele>
        <time>2019-10-03T15:45:45Z</time>
      </trkpt>
      <trkpt lat="44.0231" lon="4.07487">
        <ele>104</ele>
        <time>2019-10-03T15:45:49Z</time>
      </trkpt>
      <trkpt lat="44.0229" lon="4.0748">
        <ele>104</ele>
        <time>2019-10-03T15:45:53Z</time>
      </trkpt>
      <trkpt lat="44.02269" lon="4.07474">
        <ele>104</ele>
        <time>2019-10-03T15:45:57Z</time>
      </trkpt>
      <trkpt lat="44.02251" lon="4.07468">
        <ele>104</ele>
        <time>2019-10-03T15:46:00Z</time>
      </trkpt>
      <trkpt lat="44.02232" lon="4.07463">
        <ele>104</ele>
        <time>2019-10-03T15:46:04Z</time>
      </trkpt>
      <trkpt lat="44.02212" lon="4.07456">
        <ele>104</ele>
        <time>2019-10-03T15:46:08Z</time>
      </trkpt>
      <trkpt lat="44.02191" lon="4.0745">
        <ele>104</ele>
        <time>2019-10-03T15:46:12Z</time>
      </trkpt>
      <trkpt lat="44.02171" lon="4.0745">
        <ele>104</ele>
        <time>2019-10-03T15:46:16Z</time>
      </trkpt>
      <trkpt lat="44.0215" lon="4.0745">
        <ele>104</ele>
        <time>2019-10-03T15:46:20Z</time>
      </trkpt>
      <trkpt lat="44.0213" lon="4.07449">
        <ele>104</ele>
        <time>2019-10-03T15:46:25Z</time>
      </trkpt>
      <trkpt lat="44.02127" lon="4.07449">
        <ele>104</ele>
        <time>2019-10-03T15:46:26Z</time>
      </trkpt>
      <trkpt lat="44.02116" lon="4.07444">
        <ele>104</ele>
        <time>2019-10-03T15:46:30Z</time>
      </trkpt>
      <trkpt lat="44.02092" lon="4.07435">
        <ele>105</ele>
        <time>2019-10-03T15:46:37Z</time>
      </trkpt>
      <trkpt lat="44.02074" lon="4.07431">
        <ele>105</ele>
        <time>2019-10-03T15:46:43Z</time>
      </trkpt>
      <trkpt lat="44.02053" lon="4.07427">
        <ele>106</ele>
        <time>2019-10-03T15:46:49Z</time>
      </trkpt>
      <trkpt lat="44.02034" lon="4.07421">
        <ele>106</ele>
        <time>2019-10-03T15:46:54Z</time>
      </trkpt>
      <trkpt lat="44.02016" lon="4.07415">
        <ele>106</ele>
        <time>2019-10-03T15:46:59Z</time>
      </trkpt>
      <trkpt lat="44.01996" lon="4.07406">
        <ele>106</ele>
        <time>2019-10-03T15:47:05Z</time>
      </trkpt>
      <trkpt lat="44.01995" lon="4.07403">
        <ele>106</ele>
        <time>2019-10-03T15:47:06Z</time>
      </trkpt>
      <trkpt lat="44.01996" lon="4.0739">
        <ele>106</ele>
        <time>2019-10-03T15:47:09Z</time>
      </trkpt>
      <trkpt lat="44.01997" lon="4.07386">
        <ele>106</ele>
        <time>2019-10-03T15:47:10Z</time>
      </trkpt>
      <trkpt lat="44.02002" lon="4.07362">
        <ele>106</ele>
        <time>2019-10-03T15:47:16Z</time>
      </trkpt>
      <trkpt lat="44.02001" lon="4.07359">
        <ele>106</ele>
        <time>2019-10-03T15:47:17Z</time>
      </trkpt>
      <trkpt lat="44.01993" lon="4.07352">
        <ele>106</ele>
        <time>2019-10-03T15:47:20Z</time>
      </trkpt>
      <trkpt lat="44.01976" lon="4.07342">
        <ele>106</ele>
        <time>2019-10-03T15:47:26Z</time>
      </trkpt>
      <trkpt lat="44.01958" lon="4.07331">
        <ele>106</ele>
        <time>2019-10-03T15:47:32Z</time>
      </trkpt>
      <trkpt lat="44.01939" lon="4.0732">
        <ele>106</ele>
        <time>2019-10-03T15:47:38Z</time>
      </trkpt>
      <trkpt lat="44.01922" lon="4.07312">
        <ele>106</ele>
        <time>2019-10-03T15:47:44Z</time>
      </trkpt>
      <trkpt lat="44.01904" lon="4.07304">
        <ele>106</ele>
        <time>2019-10-03T15:47:50Z</time>
      </trkpt>
      <trkpt lat="44.01887" lon="4.07301">
        <ele>106</ele>
        <time>2019-10-03T15:47:56Z</time>
      </trkpt>
      <trkpt lat="44.01876" lon="4.07298">
        <ele>106</ele>
        <time>2019-10-03T15:48:01Z</time>
      </trkpt>
      <trkpt lat="44.01984" lon="4.06844">
        <ele>116</ele>
        <time>2019-10-03T15:52:41Z</time>
      </trkpt>
      <trkpt lat="44.01979" lon="4.06843">
        <ele>116</ele>
        <time>2019-10-03T15:52:50Z</time>
      </trkpt>
      <trkpt lat="44.0197" lon="4.06842">
        <ele>116</ele>
        <time>2019-10-03T15:52:59Z</time>
      </trkpt>
      <trkpt lat="44.01962" lon="4.0684">
        <ele>116</ele>
        <time>2019-10-03T15:53:08Z</time>
      </trkpt>
      <trkpt lat="44.01955" lon="4.0684">
        <ele>117</ele>
        <time>2019-10-03T15:53:16Z</time>
      </trkpt>
      <trkpt lat="44.01951" lon="4.06839">
        <ele>118</ele>
        <time>2019-10-03T15:53:21Z</time>
      </trkpt>
      <trkpt lat="44.01948" lon="4.06838">
        <ele>118</ele>
        <time>2019-10-03T15:53:25Z</time>
      </trkpt>
      <trkpt lat="44.01943" lon="4.06837">
        <ele>119</ele>
        <time>2019-10-03T15:53:31Z</time>
      </trkpt>
      <trkpt lat="44.01936" lon="4.06837">
        <ele>121</ele>
        <time>2019-10-03T15:53:39Z</time>
      </trkpt>
      <trkpt lat="44.01927" lon="4.06835">
        <ele>123</ele>
        <time>2019-10-03T15:53:48Z</time>
      </trkpt>
      <trkpt lat="44.01924" lon="4.06834">
        <ele>123</ele>
        <time>2019-10-03T15:53:52Z</time>
      </trkpt>
      <trkpt lat="44.01917" lon="4.06831">
        <ele>125</ele>
        <time>2019-10-03T15:54:02Z</time>
      </trkpt>
      <trkpt lat="44.01911" lon="4.0683">
        <ele>127</ele>
        <time>2019-10-03T15:54:09Z</time>
      </trkpt>
      <trkpt lat="44.01901" lon="4.06827">
        <ele>128</ele>
        <time>2019-10-03T15:54:18Z</time>
      </trkpt>
      <trkpt lat="44.0189" lon="4.06823">
        <ele>129</ele>
        <time>2019-10-03T15:54:29Z</time>
      </trkpt>
      <trkpt lat="44.01886" lon="4.06822">
        <ele>130</ele>
        <time>2019-10-03T15:54:37Z</time>
      </trkpt>
      <trkpt lat="44.01877" lon="4.06819">
        <ele>130</ele>
        <time>2019-10-03T15:54:44Z</time>
      </trkpt>
      <trkpt lat="44.01859" lon="4.06817">
        <ele>131</ele>
        <time>2019-10-03T15:54:52Z</time>
      </trkpt>
      <trkpt lat="44.01858" lon="4.06816">
        <ele>131</ele>
        <time>2019-10-03T15:54:53Z</time>
      </trkpt>
      <trkpt lat="44.01842" lon="4.06802">
        <ele>132</ele>
        <time>2019-10-03T15:55:02Z</time>
      </trkpt>
      <trkpt lat="44.0183" lon="4.06794">
        <ele>132</ele>
        <time>2019-10-03T15:55:08Z</time>
      </trkpt>
      <trkpt lat="44.01813" lon="4.06785">
        <ele>133</ele>
        <time>2019-10-03T15:55:15Z</time>
      </trkpt>
      <trkpt lat="44.018" lon="4.06778">
        <ele>133</ele>
        <time>2019-10-03T15:55:21Z</time>
      </trkpt>
      <trkpt lat="44.01785" lon="4.06772">
        <ele>133</ele>
        <time>2019-10-03T15:55:27Z</time>
      </trkpt>
      <trkpt lat="44.01767" lon="4.06772">
        <ele>133</ele>
        <time>2019-10-03T15:55:32Z</time>
      </trkpt>
      <trkpt lat="44.01747" lon="4.06769">
        <ele>133</ele>
        <time>2019-10-03T15:55:38Z</time>
      </trkpt>
      <trkpt lat="44.01727" lon="4.06765">
        <ele>133</ele>
        <time>2019-10-03T15:55:45Z</time>
      </trkpt>
      <trkpt lat="44.01708" lon="4.06764">
        <ele>133</ele>
        <time>2019-10-03T15:55:53Z</time>
      </trkpt>
      <trkpt lat="44.01696" lon="4.06759">
        <ele>133</ele>
        <time>2019-10-03T15:56:00Z</time>
      </trkpt>
      <trkpt lat="44.0168" lon="4.06752">
        <ele>133</ele>
        <time>2019-10-03T15:56:09Z</time>
      </trkpt>
      <trkpt lat="44.01671" lon="4.06746">
        <ele>133</ele>
        <time>2019-10-03T15:56:14Z</time>
      </trkpt>
      <trkpt lat="44.01657" lon="4.06737">
        <ele>133</ele>
        <time>2019-10-03T15:56:21Z</time>
      </trkpt>
      <trkpt lat="44.01642" lon="4.06727">
        <ele>133</ele>
        <time>2019-10-03T15:56:29Z</time>
      </trkpt>
      <trkpt lat="44.01628" lon="4.06716">
        <ele>133</ele>
        <time>2019-10-03T15:56:36Z</time>
      </trkpt>
      <trkpt lat="44.01615" lon="4.067">
        <ele>133</ele>
        <time>2019-10-03T15:56:42Z</time>
      </trkpt>
      <trkpt lat="44.01604" lon="4.06677">
        <ele>133</ele>
        <time>2019-10-03T15:56:48Z</time>
      </trkpt>
      <trkpt lat="44.01595" lon="4.06655">
        <ele>133</ele>
        <time>2019-10-03T15:56:54Z</time>
      </trkpt>
      <trkpt lat="44.01588" lon="4.06631">
        <ele>133</ele>
        <time>2019-10-03T15:57:00Z</time>
      </trkpt>
      <trkpt lat="44.01581" lon="4.06606">
        <ele>133</ele>
        <time>2019-10-03T15:57:06Z</time>
      </trkpt>
      <trkpt lat="44.01575" lon="4.0658">
        <ele>133</ele>
        <time>2019-10-03T15:57:12Z</time>
      </trkpt>
      <trkpt lat="44.01569" lon="4.06555">
        <ele>133</ele>
        <time>2019-10-03T15:57:18Z</time>
      </trkpt>
      <trkpt lat="44.0156" lon="4.06532">
        <ele>133</ele>
        <time>2019-10-03T15:57:24Z</time>
      </trkpt>
      <trkpt lat="44.01554" lon="4.0651">
        <ele>134</ele>
        <time>2019-10-03T15:57:30Z</time>
      </trkpt>
      <trkpt lat="44.01549" lon="4.0649">
        <ele>134</ele>
        <time>2019-10-03T15:57:36Z</time>
      </trkpt>
      <trkpt lat="44.01546" lon="4.0648">
        <ele>135</ele>
        <time>2019-10-03T15:57:39Z</time>
      </trkpt>
      <trkpt lat="44.01527" lon="4.06463">
        <ele>136</ele>
        <time>2019-10-03T15:57:46Z</time>
      </trkpt>
      <trkpt lat="44.01509" lon="4.06458">
        <ele>137</ele>
        <time>2019-10-03T15:57:51Z</time>
      </trkpt>
      <trkpt lat="44.01491" lon="4.06453">
        <ele>138</ele>
        <time>2019-10-03T15:57:56Z</time>
      </trkpt>
      <trkpt lat="44.0147" lon="4.06451">
        <ele>138</ele>
        <time>2019-10-03T15:58:01Z</time>
      </trkpt>
      <trkpt lat="44.0145" lon="4.06451">
        <ele>138</ele>
        <time>2019-10-03T15:58:05Z</time>
      </trkpt>
      <trkpt lat="44.0143" lon="4.0645">
        <ele>139</ele>
        <time>2019-10-03T15:58:09Z</time>
      </trkpt>
      <trkpt lat="44.01421" lon="4.0645">
        <ele>139</ele>
        <time>2019-10-03T15:58:11Z</time>
      </trkpt>
      <trkpt lat="44.01414" lon="4.06448">
        <ele>140</ele>
        <time>2019-10-03T15:58:13Z</time>
      </trkpt>
      <trkpt lat="44.01403" lon="4.06436">
        <ele>140</ele>
        <time>2019-10-03T15:58:17Z</time>
      </trkpt>
      <trkpt lat="44.01403" lon="4.06431">
        <ele>140</ele>
        <time>2019-10-03T15:58:18Z</time>
      </trkpt>
      <trkpt lat="44.01404" lon="4.06399">
        <ele>141</ele>
        <time>2019-10-03T15:58:25Z</time>
      </trkpt>
      <trkpt lat="44.01404" lon="4.06374">
        <ele>141</ele>
        <time>2019-10-03T15:58:30Z</time>
      </trkpt>
      <trkpt lat="44.01404" lon="4.06348">
        <ele>142</ele>
        <time>2019-10-03T15:58:36Z</time>
      </trkpt>
      <trkpt lat="44.014" lon="4.06336">
        <ele>142</ele>
        <time>2019-10-03T15:58:42Z</time>
      </trkpt>
      <trkpt lat="44.014" lon="4.06336">
        <ele>142</ele>
        <time>2019-10-03T15:58:42Z</time>
      </trkpt>
      <trkpt lat="44.01389" lon="4.06335">
        <ele>149</ele>
        <time>2019-10-03T15:59:39Z</time>
      </trkpt>
      <trkpt lat="44.01385" lon="4.06337">
        <ele>149</ele>
        <time>2019-10-03T15:59:40Z</time>
      </trkpt>
      <trkpt lat="44.01376" lon="4.06338">
        <ele>149</ele>
        <time>2019-10-03T15:59:43Z</time>
      </trkpt>
      <trkpt lat="44.01358" lon="4.06338">
        <ele>149</ele>
        <time>2019-10-03T15:59:47Z</time>
      </trkpt>
      <trkpt lat="44.01344" lon="4.06337">
        <ele>149</ele>
        <time>2019-10-03T15:59:50Z</time>
      </trkpt>
      <trkpt lat="44.01335" lon="4.06335">
        <ele>149</ele>
        <time>2019-10-03T15:59:52Z</time>
      </trkpt>
      <trkpt lat="44.01326" lon="4.06331">
        <ele>149</ele>
        <time>2019-10-03T15:59:54Z</time>
      </trkpt>
      <trkpt lat="44.01299" lon="4.06316">
        <ele>149</ele>
        <time>2019-10-03T16:00:01Z</time>
      </trkpt>
      <trkpt lat="44.01282" lon="4.06303">
        <ele>149</ele>
        <time>2019-10-03T16:00:06Z</time>
      </trkpt>
      <trkpt lat="44.01275" lon="4.06296">
        <ele>149</ele>
        <time>2019-10-03T16:00:08Z</time>
      </trkpt>
      <trkpt lat="44.01251" lon="4.06284">
        <ele>149</ele>
        <time>2019-10-03T16:00:13Z</time>
      </trkpt>
      <trkpt lat="44.01231" lon="4.06275">
        <ele>149</ele>
        <time>2019-10-03T16:00:17Z</time>
      </trkpt>
      <trkpt lat="44.01211" lon="4.06265">
        <ele>149</ele>
        <time>2019-10-03T16:00:21Z</time>
      </trkpt>
      <trkpt lat="44.01191" lon="4.06253">
        <ele>149</ele>
        <time>2019-10-03T16:00:25Z</time>
      </trkpt>
      <trkpt lat="44.0117" lon="4.06243">
        <ele>149</ele>
        <time>2019-10-03T16:00:29Z</time>
      </trkpt>
      <trkpt lat="44.01166" lon="4.06242">
        <ele>149</ele>
        <time>2019-10-03T16:00:30Z</time>
      </trkpt>
      <trkpt lat="44.0116" lon="4.06232">
        <ele>149</ele>
        <time>2019-10-03T16:00:35Z</time>
      </trkpt>
      <trkpt lat="44.01164" lon="4.06208">
        <ele>149</ele>
        <time>2019-10-03T16:00:40Z</time>
      </trkpt>
      <trkpt lat="44.01169" lon="4.06178">
        <ele>148</ele>
        <time>2019-10-03T16:00:45Z</time>
      </trkpt>
      <trkpt lat="44.01172" lon="4.06157">
        <ele>148</ele>
        <time>2019-10-03T16:00:50Z</time>
      </trkpt>
      <trkpt lat="44.01177" lon="4.06131">
        <ele>147</ele>
        <time>2019-10-03T16:00:55Z</time>
      </trkpt>
      <trkpt lat="44.0118" lon="4.06107">
        <ele>147</ele>
        <time>2019-10-03T16:01:01Z</time>
      </trkpt>
      <trkpt lat="44.01182" lon="4.06081">
        <ele>147</ele>
        <time>2019-10-03T16:01:09Z</time>
      </trkpt>
      <trkpt lat="44.01183" lon="4.0607">
        <ele>147</ele>
        <time>2019-10-03T16:01:13Z</time>
      </trkpt>
      <trkpt lat="44.01185" lon="4.06052">
        <ele>147</ele>
        <time>2019-10-03T16:01:20Z</time>
      </trkpt>
      <trkpt lat="44.01186" lon="4.06047">
        <ele>147</ele>
        <time>2019-10-03T16:01:22Z</time>
      </trkpt>
      <trkpt lat="44.01189" lon="4.06029">
        <ele>147</ele>
        <time>2019-10-03T16:01:29Z</time>
      </trkpt>
      <trkpt lat="44.0119" lon="4.06003">
        <ele>147</ele>
        <time>2019-10-03T16:01:40Z</time>
      </trkpt>
      <trkpt lat="44.01192" lon="4.05984">
        <ele>147</ele>
        <time>2019-10-03T16:01:48Z</time>
      </trkpt>
      <trkpt lat="44.01195" lon="4.0596">
        <ele>149</ele>
        <time>2019-10-03T16:01:59Z</time>
      </trkpt>
      <trkpt lat="44.012" lon="4.0594">
        <ele>150</ele>
        <time>2019-10-03T16:02:08Z</time>
      </trkpt>
      <trkpt lat="44.01204" lon="4.05923">
        <ele>150</ele>
        <time>2019-10-03T16:02:13Z</time>
      </trkpt>
      <trkpt lat="44.0121" lon="4.05895">
        <ele>151</ele>
        <time>2019-10-03T16:02:19Z</time>
      </trkpt>
      <trkpt lat="44.01214" lon="4.05873">
        <ele>151</ele>
        <time>2019-10-03T16:02:24Z</time>
      </trkpt>
      <trkpt lat="44.01213" lon="4.0587">
        <ele>151</ele>
        <time>2019-10-03T16:02:25Z</time>
      </trkpt>
      <trkpt lat="44.01214" lon="4.05858">
        <ele>151</ele>
        <time>2019-10-03T16:02:28Z</time>
      </trkpt>
      <trkpt lat="44.01214" lon="4.05856">
        <ele>151</ele>
        <time>2019-10-03T16:02:29Z</time>
      </trkpt>
      <trkpt lat="44.01216" lon="4.05849">
        <ele>151</ele>
        <time>2019-10-03T16:02:39Z</time>
      </trkpt>
      <trkpt lat="44.01216" lon="4.05843">
        <ele>151</ele>
        <time>2019-10-03T16:02:45Z</time>
      </trkpt>
      <trkpt lat="44.01217" lon="4.0584">
        <ele>151</ele>
        <time>2019-10-03T16:02:50Z</time>
      </trkpt>
      <trkpt lat="44.01218" lon="4.05827">
        <ele>151</ele>
        <time>2019-10-03T16:02:56Z</time>
      </trkpt>
      <trkpt lat="44.01223" lon="4.05808">
        <ele>151</ele>
        <time>2019-10-03T16:03:02Z</time>
      </trkpt>
      <trkpt lat="44.01227" lon="4.05783">
        <ele>151</ele>
        <time>2019-10-03T16:03:07Z</time>
      </trkpt>
      <trkpt lat="44.01233" lon="4.05756">
        <ele>150</ele>
        <time>2019-10-03T16:03:13Z</time>
      </trkpt>
      <trkpt lat="44.01242" lon="4.0573">
        <ele>150</ele>
        <time>2019-10-03T16:03:19Z</time>
      </trkpt>
      <trkpt lat="44.01247" lon="4.05711">
        <ele>149</ele>
        <time>2019-10-03T16:03:25Z</time>
      </trkpt>
      <trkpt lat="44.01251" lon="4.05699">
        <ele>149</ele>
        <time>2019-10-03T16:03:30Z</time>
      </trkpt>
      <trkpt lat="44.01258" lon="4.05675">
        <ele>149</ele>
        <time>2019-10-03T16:03:35Z</time>
      </trkpt>
      <trkpt lat="44.01268" lon="4.05655">
        <ele>149</ele>
        <time>2019-10-03T16:03:39Z</time>
      </trkpt>
      <trkpt lat="44.01272" lon="4.05644">
        <ele>149</ele>
        <time>2019-10-03T16:03:41Z</time>
      </trkpt>
      <trkpt lat="44.01282" lon="4.05627">
        <ele>148</ele>
        <time>2019-10-03T16:03:44Z</time>
      </trkpt>
      <trkpt lat="44.01294" lon="4.05609">
        <ele>148</ele>
        <time>2019-10-03T16:03:48Z</time>
      </trkpt>
      <trkpt lat="44.01307" lon="4.05582">
        <ele>148</ele>
        <time>2019-10-03T16:03:52Z</time>
      </trkpt>
      <trkpt lat="44.01314" lon="4.05552">
        <ele>147</ele>
        <time>2019-10-03T16:03:56Z</time>
      </trkpt>
      <trkpt lat="44.01319" lon="4.0552">
        <ele>146</ele>
        <time>2019-10-03T16:04:00Z</time>
      </trkpt>
      <trkpt lat="44.01328" lon="4.05496">
        <ele>145</ele>
        <time>2019-10-03T16:04:04Z</time>
      </trkpt>
      <trkpt lat="44.01335" lon="4.0549">
        <ele>145</ele>
        <time>2019-10-03T16:04:06Z</time>
      </trkpt>
      <trkpt lat="44.01356" lon="4.0547">
        <ele>143</ele>
        <time>2019-10-03T16:04:10Z</time>
      </trkpt>
      <trkpt lat="44.01373" lon="4.05455">
        <ele>142</ele>
        <time>2019-10-03T16:04:13Z</time>
      </trkpt>
      <trkpt lat="44.01389" lon="4.05441">
        <ele>140</ele>
        <time>2019-10-03T16:04:16Z</time>
      </trkpt>
      <trkpt lat="44.01405" lon="4.05426">
        <ele>139</ele>
        <time>2019-10-03T16:04:19Z</time>
      </trkpt>
      <trkpt lat="44.0141" lon="4.05422">
        <ele>138</ele>
        <time>2019-10-03T16:04:20Z</time>
      </trkpt>
      <trkpt lat="44.01417" lon="4.05397">
        <ele>135</ele>
        <time>2019-10-03T16:04:25Z</time>
      </trkpt>
      <trkpt lat="44.01417" lon="4.05391">
        <ele>135</ele>
        <time>2019-10-03T16:04:26Z</time>
      </trkpt>
      <trkpt lat="44.01417" lon="4.05386">
        <ele>134</ele>
        <time>2019-10-03T16:04:27Z</time>
      </trkpt>
      <trkpt lat="44.01419" lon="4.05356">
        <ele>132</ele>
        <time>2019-10-03T16:04:32Z</time>
      </trkpt>
      <trkpt lat="44.01422" lon="4.05331">
        <ele>130</ele>
        <time>2019-10-03T16:04:36Z</time>
      </trkpt>
      <trkpt lat="44.01429" lon="4.05302">
        <ele>129</ele>
        <time>2019-10-03T16:04:40Z</time>
      </trkpt>
      <trkpt lat="44.01432" lon="4.05273">
        <ele>127</ele>
        <time>2019-10-03T16:04:44Z</time>
      </trkpt>
      <trkpt lat="44.01431" lon="4.05247">
        <ele>127</ele>
        <time>2019-10-03T16:04:47Z</time>
      </trkpt>
      <trkpt lat="44.0143" lon="4.05239">
        <ele>126</ele>
        <time>2019-10-03T16:04:48Z</time>
      </trkpt>
      <trkpt lat="44.01425" lon="4.05216">
        <ele>126</ele>
        <time>2019-10-03T16:04:51Z</time>
      </trkpt>
      <trkpt lat="44.01423" lon="4.05195">
        <ele>126</ele>
        <time>2019-10-03T16:04:54Z</time>
      </trkpt>
      <trkpt lat="44.01416" lon="4.05169">
        <ele>125</ele>
        <time>2019-10-03T16:04:58Z</time>
      </trkpt>
      <trkpt lat="44.01416" lon="4.05141">
        <ele>124</ele>
        <time>2019-10-03T16:05:02Z</time>
      </trkpt>
      <trkpt lat="44.01418" lon="4.05133">
        <ele>124</ele>
        <time>2019-10-03T16:05:03Z</time>
      </trkpt>
      <trkpt lat="44.01421" lon="4.05125">
        <ele>124</ele>
        <time>2019-10-03T16:05:04Z</time>
      </trkpt>
      <trkpt lat="44.01428" lon="4.05107">
        <ele>123</ele>
        <time>2019-10-03T16:05:06Z</time>
      </trkpt>
      <trkpt lat="44.01438" lon="4.05081">
        <ele>123</ele>
        <time>2019-10-03T16:05:09Z</time>
      </trkpt>
      <trkpt lat="44.01463" lon="4.05065">
        <ele>123</ele>
        <time>2019-10-03T16:05:13Z</time>
      </trkpt>
      <trkpt lat="44.01471" lon="4.05066">
        <ele>123</ele>
        <time>2019-10-03T16:05:14Z</time>
      </trkpt>
      <trkpt lat="44.01498" lon="4.05075">
        <ele>122</ele>
        <time>2019-10-03T16:05:18Z</time>
      </trkpt>
      <trkpt lat="44.0152" lon="4.05081">
        <ele>122</ele>
        <time>2019-10-03T16:05:21Z</time>
      </trkpt>
      <trkpt lat="44.01542" lon="4.05087">
        <ele>121</ele>
        <time>2019-10-03T16:05:24Z</time>
      </trkpt>
      <trkpt lat="44.01565" lon="4.05093">
        <ele>121</ele>
        <time>2019-10-03T16:05:27Z</time>
      </trkpt>
      <trkpt lat="44.01585" lon="4.05098">
        <ele>120</ele>
        <time>2019-10-03T16:05:30Z</time>
      </trkpt>
      <trkpt lat="44.01591" lon="4.05101">
        <ele>120</ele>
        <time>2019-10-03T16:05:31Z</time>
      </trkpt>
      <trkpt lat="44.01597" lon="4.05103">
        <ele>120</ele>
        <time>2019-10-03T16:05:32Z</time>
      </trkpt>
      <trkpt lat="44.01624" lon="4.05112">
        <ele>120</ele>
        <time>2019-10-03T16:05:36Z</time>
      </trkpt>
      <trkpt lat="44.01629" lon="4.05114">
        <ele>119</ele>
        <time>2019-10-03T16:05:37Z</time>
      </trkpt>
      <trkpt lat="44.01649" lon="4.05121">
        <ele>119</ele>
        <time>2019-10-03T16:05:40Z</time>
      </trkpt>
      <trkpt lat="44.0166" lon="4.05126">
        <ele>119</ele>
        <time>2019-10-03T16:05:42Z</time>
      </trkpt>
      <trkpt lat="44.01672" lon="4.05131">
        <ele>119</ele>
        <time>2019-10-03T16:05:44Z</time>
      </trkpt>
      <trkpt lat="44.01691" lon="4.05138">
        <ele>119</ele>
        <time>2019-10-03T16:05:47Z</time>
      </trkpt>
      <trkpt lat="44.01709" lon="4.05144">
        <ele>119</ele>
        <time>2019-10-03T16:05:50Z</time>
      </trkpt>
      <trkpt lat="44.01731" lon="4.05152">
        <ele>119</ele>
        <time>2019-10-03T16:05:54Z</time>
      </trkpt>
      <trkpt lat="44.01754" lon="4.05158">
        <ele>119</ele>
        <time>2019-10-03T16:05:58Z</time>
      </trkpt>
      <trkpt lat="44.01773" lon="4.05161">
        <ele>118</ele>
        <time>2019-10-03T16:06:01Z</time>
      </trkpt>
      <trkpt lat="44.01792" lon="4.05165">
        <ele>118</ele>
        <time>2019-10-03T16:06:04Z</time>
      </trkpt>
      <trkpt lat="44.01811" lon="4.05166">
        <ele>117</ele>
        <time>2019-10-03T16:06:07Z</time>
      </trkpt>
      <trkpt lat="44.01829" lon="4.05166">
        <ele>117</ele>
        <time>2019-10-03T16:06:10Z</time>
      </trkpt>
      <trkpt lat="44.01848" lon="4.05164">
        <ele>117</ele>
        <time>2019-10-03T16:06:13Z</time>
      </trkpt>
      <trkpt lat="44.01867" lon="4.05162">
        <ele>117</ele>
        <time>2019-10-03T16:06:16Z</time>
      </trkpt>
      <trkpt lat="44.01885" lon="4.05159">
        <ele>117</ele>
        <time>2019-10-03T16:06:19Z</time>
      </trkpt>
      <trkpt lat="44.01904" lon="4.05155">
        <ele>117</ele>
        <time>2019-10-03T16:06:22Z</time>
      </trkpt>
      <trkpt lat="44.01924" lon="4.05153">
        <ele>117</ele>
        <time>2019-10-03T16:06:25Z</time>
      </trkpt>
      <trkpt lat="44.01936" lon="4.05153">
        <ele>116</ele>
        <time>2019-10-03T16:06:27Z</time>
      </trkpt>
      <trkpt lat="44.01962" lon="4.05169">
        <ele>116</ele>
        <time>2019-10-03T16:06:32Z</time>
      </trkpt>
      <trkpt lat="44.01977" lon="4.05191">
        <ele>116</ele>
        <time>2019-10-03T16:06:36Z</time>
      </trkpt>
      <trkpt lat="44.01994" lon="4.05187">
        <ele>115</ele>
        <time>2019-10-03T16:06:39Z</time>
      </trkpt>
      <trkpt lat="44.0201" lon="4.05174">
        <ele>115</ele>
        <time>2019-10-03T16:06:42Z</time>
      </trkpt>
      <trkpt lat="44.02022" lon="4.05168">
        <ele>115</ele>
        <time>2019-10-03T16:06:44Z</time>
      </trkpt>
      <trkpt lat="44.02047" lon="4.05159">
        <ele>115</ele>
        <time>2019-10-03T16:06:48Z</time>
      </trkpt>
      <trkpt lat="44.02053" lon="4.05156">
        <ele>115</ele>
        <time>2019-10-03T16:06:49Z</time>
      </trkpt>
      <trkpt lat="44.02064" lon="4.05148">
        <ele>115</ele>
        <time>2019-10-03T16:06:51Z</time>
      </trkpt>
      <trkpt lat="44.02086" lon="4.05128">
        <ele>115</ele>
        <time>2019-10-03T16:06:55Z</time>
      </trkpt>
      <trkpt lat="44.02102" lon="4.05112">
        <ele>114</ele>
        <time>2019-10-03T16:06:58Z</time>
      </trkpt>
      <trkpt lat="44.02118" lon="4.05098">
        <ele>114</ele>
        <time>2019-10-03T16:07:01Z</time>
      </trkpt>
      <trkpt lat="44.02124" lon="4.05094">
        <ele>114</ele>
        <time>2019-10-03T16:07:02Z</time>
      </trkpt>
      <trkpt lat="44.02149" lon="4.05085">
        <ele>114</ele>
        <time>2019-10-03T16:07:06Z</time>
      </trkpt>
      <trkpt lat="44.02155" lon="4.05083">
        <ele>114</ele>
        <time>2019-10-03T16:07:07Z</time>
      </trkpt>
      <trkpt lat="44.02174" lon="4.05083">
        <ele>114</ele>
        <time>2019-10-03T16:07:10Z</time>
      </trkpt>
      <trkpt lat="44.02192" lon="4.05086">
        <ele>114</ele>
        <time>2019-10-03T16:07:13Z</time>
      </trkpt>
      <trkpt lat="44.02211" lon="4.05089">
        <ele>113</ele>
        <time>2019-10-03T16:07:16Z</time>
      </trkpt>
      <trkpt lat="44.02229" lon="4.05091">
        <ele>113</ele>
        <time>2019-10-03T16:07:19Z</time>
      </trkpt>
      <trkpt lat="44.02253" lon="4.0509">
        <ele>113</ele>
        <time>2019-10-03T16:07:23Z</time>
      </trkpt>
      <trkpt lat="44.02275" lon="4.05087">
        <ele>113</ele>
        <time>2019-10-03T16:07:27Z</time>
      </trkpt>
      <trkpt lat="44.02299" lon="4.05083">
        <ele>113</ele>
        <time>2019-10-03T16:07:31Z</time>
      </trkpt>
      <trkpt lat="44.02322" lon="4.0508">
        <ele>112</ele>
        <time>2019-10-03T16:07:35Z</time>
      </trkpt>
      <trkpt lat="44.02343" lon="4.05077">
        <ele>112</ele>
        <time>2019-10-03T16:07:39Z</time>
      </trkpt>
      <trkpt lat="44.02365" lon="4.05074">
        <ele>112</ele>
        <time>2019-10-03T16:07:43Z</time>
      </trkpt>
      <trkpt lat="44.02386" lon="4.0507">
        <ele>112</ele>
        <time>2019-10-03T16:07:47Z</time>
      </trkpt>
      <trkpt lat="44.02407" lon="4.05067">
        <ele>112</ele>
        <time>2019-10-03T16:07:51Z</time>
      </trkpt>
      <trkpt lat="44.02427" lon="4.05064">
        <ele>112</ele>
        <time>2019-10-03T16:07:55Z</time>
      </trkpt>
      <trkpt lat="44.02446" lon="4.05061">
        <ele>112</ele>
        <time>2019-10-03T16:07:59Z</time>
      </trkpt>
      <trkpt lat="44.02465" lon="4.05058">
        <ele>112</ele>
        <time>2019-10-03T16:08:03Z</time>
      </trkpt>
      <trkpt lat="44.02484" lon="4.05055">
        <ele>112</ele>
        <time>2019-10-03T16:08:08Z</time>
      </trkpt>
      <trkpt lat="44.02504" lon="4.05051">
        <ele>112</ele>
        <time>2019-10-03T16:08:13Z</time>
      </trkpt>
      <trkpt lat="44.02526" lon="4.05047">
        <ele>112</ele>
        <time>2019-10-03T16:08:18Z</time>
      </trkpt>
      <trkpt lat="44.02544" lon="4.05044">
        <ele>112</ele>
        <time>2019-10-03T16:08:22Z</time>
      </trkpt>
      <trkpt lat="44.02565" lon="4.0504">
        <ele>112</ele>
        <time>2019-10-03T16:08:27Z</time>
      </trkpt>
      <trkpt lat="44.02584" lon="4.05037">
        <ele>112</ele>
        <time>2019-10-03T16:08:31Z</time>
      </trkpt>
      <trkpt lat="44.02603" lon="4.05034">
        <ele>112</ele>
        <time>2019-10-03T16:08:35Z</time>
      </trkpt>
      <trkpt lat="44.02621" lon="4.05031">
        <ele>112</ele>
        <time>2019-10-03T16:08:39Z</time>
      </trkpt>
      <trkpt lat="44.02626" lon="4.05031">
        <ele>112</ele>
        <time>2019-10-03T16:08:40Z</time>
      </trkpt>
      <trkpt lat="44.02651" lon="4.05027">
        <ele>112</ele>
        <time>2019-10-03T16:08:45Z</time>
      </trkpt>
      <trkpt lat="44.02671" lon="4.05024">
        <ele>112</ele>
        <time>2019-10-03T16:08:49Z</time>
      </trkpt>
      <trkpt lat="44.02692" lon="4.05021">
        <ele>112</ele>
        <time>2019-10-03T16:08:53Z</time>
      </trkpt>
      <trkpt lat="44.02698" lon="4.05021">
        <ele>112</ele>
        <time>2019-10-03T16:08:54Z</time>
      </trkpt>
      <trkpt lat="44.02726" lon="4.05018">
        <ele>112</ele>
        <time>2019-10-03T16:08:59Z</time>
      </trkpt>
      <trkpt lat="44.02744" lon="4.05015">
        <ele>112</ele>
        <time>2019-10-03T16:09:02Z</time>
      </trkpt>
      <trkpt lat="44.02764" lon="4.05011">
        <ele>112</ele>
        <time>2019-10-03T16:09:05Z</time>
      </trkpt>
      <trkpt lat="44.02784" lon="4.05007">
        <ele>112</ele>
        <time>2019-10-03T16:09:08Z</time>
      </trkpt>
      <trkpt lat="44.02804" lon="4.05004">
        <ele>111</ele>
        <time>2019-10-03T16:09:11Z</time>
      </trkpt>
      <trkpt lat="44.02826" lon="4.05001">
        <ele>111</ele>
        <time>2019-10-03T16:09:14Z</time>
      </trkpt>
      <trkpt lat="44.02846" lon="4.04998">
        <ele>111</ele>
        <time>2019-10-03T16:09:17Z</time>
      </trkpt>
      <trkpt lat="44.02866" lon="4.04995">
        <ele>111</ele>
        <time>2019-10-03T16:09:20Z</time>
      </trkpt>
      <trkpt lat="44.02885" lon="4.04993">
        <ele>111</ele>
        <time>2019-10-03T16:09:23Z</time>
      </trkpt>
      <trkpt lat="44.02906" lon="4.04991">
        <ele>110</ele>
        <time>2019-10-03T16:09:26Z</time>
      </trkpt>
      <trkpt lat="44.02925" lon="4.0499">
        <ele>110</ele>
        <time>2019-10-03T16:09:29Z</time>
      </trkpt>
      <trkpt lat="44.02944" lon="4.04991">
        <ele>110</ele>
        <time>2019-10-03T16:09:32Z</time>
      </trkpt>
      <trkpt lat="44.02963" lon="4.04992">
        <ele>110</ele>
        <time>2019-10-03T16:09:35Z</time>
      </trkpt>
      <trkpt lat="44.02982" lon="4.04992">
        <ele>110</ele>
        <time>2019-10-03T16:09:38Z</time>
      </trkpt>
      <trkpt lat="44.03" lon="4.04992">
        <ele>110</ele>
        <time>2019-10-03T16:09:41Z</time>
      </trkpt>
      <trkpt lat="44.03025" lon="4.04991">
        <ele>110</ele>
        <time>2019-10-03T16:09:45Z</time>
      </trkpt>
      <trkpt lat="44.03044" lon="4.04991">
        <ele>110</ele>
        <time>2019-10-03T16:09:48Z</time>
      </trkpt>
      <trkpt lat="44.03063" lon="4.04992">
        <ele>110</ele>
        <time>2019-10-03T16:09:51Z</time>
      </trkpt>
      <trkpt lat="44.03081" lon="4.04994">
        <ele>110</ele>
        <time>2019-10-03T16:09:54Z</time>
      </trkpt>
      <trkpt lat="44.03099" lon="4.04995">
        <ele>110</ele>
        <time>2019-10-03T16:09:57Z</time>
      </trkpt>
      <trkpt lat="44.03117" lon="4.04997">
        <ele>110</ele>
        <time>2019-10-03T16:10:00Z</time>
      </trkpt>
      <trkpt lat="44.03141" lon="4.04999">
        <ele>110</ele>
        <time>2019-10-03T16:10:04Z</time>
      </trkpt>
      <trkpt lat="44.03163" lon="4.05003">
        <ele>110</ele>
        <time>2019-10-03T16:10:08Z</time>
      </trkpt>
      <trkpt lat="44.03184" lon="4.05012">
        <ele>110</ele>
        <time>2019-10-03T16:10:12Z</time>
      </trkpt>
      <trkpt lat="44.03201" lon="4.05026">
        <ele>110</ele>
        <time>2019-10-03T16:10:16Z</time>
      </trkpt>
      <trkpt lat="44.03217" lon="4.05045">
        <ele>110</ele>
        <time>2019-10-03T16:10:21Z</time>
      </trkpt>
      <trkpt lat="44.03222" lon="4.05052">
        <ele>110</ele>
        <time>2019-10-03T16:10:23Z</time>
      </trkpt>
      <trkpt lat="44.03238" lon="4.05077">
        <ele>110</ele>
        <time>2019-10-03T16:10:31Z</time>
      </trkpt>
      <trkpt lat="44.03253" lon="4.05095">
        <ele>111</ele>
        <time>2019-10-03T16:10:38Z</time>
      </trkpt>
      <trkpt lat="44.0327" lon="4.0511">
        <ele>112</ele>
        <time>2019-10-03T16:10:46Z</time>
      </trkpt>
      <trkpt lat="44.03289" lon="4.05122">
        <ele>113</ele>
        <time>2019-10-03T16:10:54Z</time>
      </trkpt>
      <trkpt lat="44.03307" lon="4.0513">
        <ele>114</ele>
        <time>2019-10-03T16:11:01Z</time>
      </trkpt>
      <trkpt lat="44.03325" lon="4.05137">
        <ele>115</ele>
        <time>2019-10-03T16:11:08Z</time>
      </trkpt>
      <trkpt lat="44.03344" lon="4.05144">
        <ele>116</ele>
        <time>2019-10-03T16:11:14Z</time>
      </trkpt>
      <trkpt lat="44.03361" lon="4.0515">
        <ele>116</ele>
        <time>2019-10-03T16:11:19Z</time>
      </trkpt>
      <trkpt lat="44.03382" lon="4.05157">
        <ele>116</ele>
        <time>2019-10-03T16:11:24Z</time>
      </trkpt>
      <trkpt lat="44.034" lon="4.05163">
        <ele>116</ele>
        <time>2019-10-03T16:11:28Z</time>
      </trkpt>
      <trkpt lat="44.03418" lon="4.05169">
        <ele>116</ele>
        <time>2019-10-03T16:11:32Z</time>
      </trkpt>
      <trkpt lat="44.03436" lon="4.05174">
        <ele>116</ele>
        <time>2019-10-03T16:11:36Z</time>
      </trkpt>
      <trkpt lat="44.03455" lon="4.0518">
        <ele>117</ele>
        <time>2019-10-03T16:11:40Z</time>
      </trkpt>
      <trkpt lat="44.03474" lon="4.05186">
        <ele>117</ele>
        <time>2019-10-03T16:11:44Z</time>
      </trkpt>
      <trkpt lat="44.03493" lon="4.05191">
        <ele>118</ele>
        <time>2019-10-03T16:11:48Z</time>
      </trkpt>
      <trkpt lat="44.03511" lon="4.05196">
        <ele>118</ele>
        <time>2019-10-03T16:11:52Z</time>
      </trkpt>
      <trkpt lat="44.03532" lon="4.052">
        <ele>118</ele>
        <time>2019-10-03T16:11:57Z</time>
      </trkpt>
      <trkpt lat="44.03554" lon="4.05204">
        <ele>118</ele>
        <time>2019-10-03T16:12:02Z</time>
      </trkpt>
      <trkpt lat="44.03575" lon="4.05209">
        <ele>118</ele>
        <time>2019-10-03T16:12:07Z</time>
      </trkpt>
      <trkpt lat="44.03596" lon="4.05213">
        <ele>118</ele>
        <time>2019-10-03T16:12:12Z</time>
      </trkpt>
      <trkpt lat="44.03616" lon="4.05219">
        <ele>118</ele>
        <time>2019-10-03T16:12:17Z</time>
      </trkpt>
      <trkpt lat="44.03621" lon="4.0522">
        <ele>118</ele>
        <time>2019-10-03T16:12:18Z</time>
      </trkpt>
      <trkpt lat="44.03647" lon="4.05229">
        <ele>118</ele>
        <time>2019-10-03T16:12:24Z</time>
      </trkpt>
      <trkpt lat="44.03666" lon="4.05235">
        <ele>118</ele>
        <time>2019-10-03T16:12:28Z</time>
      </trkpt>
      <trkpt lat="44.03687" lon="4.05243">
        <ele>118</ele>
        <time>2019-10-03T16:12:32Z</time>
      </trkpt>
      <trkpt lat="44.03709" lon="4.05251">
        <ele>118</ele>
        <time>2019-10-03T16:12:36Z</time>
      </trkpt>
      <trkpt lat="44.03733" lon="4.0526">
        <ele>118</ele>
        <time>2019-10-03T16:12:40Z</time>
      </trkpt>
      <trkpt lat="44.03751" lon="4.05267">
        <ele>118</ele>
        <time>2019-10-03T16:12:43Z</time>
      </trkpt>
      <trkpt lat="44.03769" lon="4.05273">
        <ele>118</ele>
        <time>2019-10-03T16:12:46Z</time>
      </trkpt>
      <trkpt lat="44.03789" lon="4.0528">
        <ele>118</ele>
        <time>2019-10-03T16:12:49Z</time>
      </trkpt>
      <trkpt lat="44.03809" lon="4.05286">
        <ele>118</ele>
        <time>2019-10-03T16:12:52Z</time>
      </trkpt>
      <trkpt lat="44.03829" lon="4.0529">
        <ele>118</ele>
        <time>2019-10-03T16:12:55Z</time>
      </trkpt>
      <trkpt lat="44.03851" lon="4.05293">
        <ele>118</ele>
        <time>2019-10-03T16:12:58Z</time>
      </trkpt>
      <trkpt lat="44.03873" lon="4.05297">
        <ele>118</ele>
        <time>2019-10-03T16:13:01Z</time>
      </trkpt>
      <trkpt lat="44.03896" lon="4.05302">
        <ele>118</ele>
        <time>2019-10-03T16:13:04Z</time>
      </trkpt>
      <trkpt lat="44.0392" lon="4.05306">
        <ele>118</ele>
        <time>2019-10-03T16:13:07Z</time>
      </trkpt>
      <trkpt lat="44.03944" lon="4.05311">
        <ele>118</ele>
        <time>2019-10-03T16:13:10Z</time>
      </trkpt>
      <trkpt lat="44.03969" lon="4.05315">
        <ele>118</ele>
        <time>2019-10-03T16:13:13Z</time>
      </trkpt>
      <trkpt lat="44.03977" lon="4.05316">
        <ele>118</ele>
        <time>2019-10-03T16:13:14Z</time>
      </trkpt>
      <trkpt lat="44.03995" lon="4.05328">
        <ele>118</ele>
        <time>2019-10-03T16:13:17Z</time>
      </trkpt>
      <trkpt lat="44.03994" lon="4.05342">
        <ele>117</ele>
        <time>2019-10-03T16:13:19Z</time>
      </trkpt>
      <trkpt lat="44.03986" lon="4.05354">
        <ele>117</ele>
        <time>2019-10-03T16:13:21Z</time>
      </trkpt>
      <trkpt lat="44.03963" lon="4.05379">
        <ele>116</ele>
        <time>2019-10-03T16:13:26Z</time>
      </trkpt>
      <trkpt lat="44.03945" lon="4.05399">
        <ele>116</ele>
        <time>2019-10-03T16:13:30Z</time>
      </trkpt>
      <trkpt lat="44.03927" lon="4.0542">
        <ele>115</ele>
        <time>2019-10-03T16:13:34Z</time>
      </trkpt>
      <trkpt lat="44.03913" lon="4.05436">
        <ele>115</ele>
        <time>2019-10-03T16:13:37Z</time>
      </trkpt>
      <trkpt lat="44.039" lon="4.05453">
        <ele>115</ele>
        <time>2019-10-03T16:13:40Z</time>
      </trkpt>
      <trkpt lat="44.0388" lon="4.05477">
        <ele>115</ele>
        <time>2019-10-03T16:13:44Z</time>
      </trkpt>
      <trkpt lat="44.03866" lon="4.05495">
        <ele>115</ele>
        <time>2019-10-03T16:13:47Z</time>
      </trkpt>
      <trkpt lat="44.03851" lon="4.05512">
        <ele>114</ele>
        <time>2019-10-03T16:13:50Z</time>
      </trkpt>
      <trkpt lat="44.03837" lon="4.0553">
        <ele>114</ele>
        <time>2019-10-03T16:13:53Z</time>
      </trkpt>
      <trkpt lat="44.03823" lon="4.05548">
        <ele>114</ele>
        <time>2019-10-03T16:13:56Z</time>
      </trkpt>
      <trkpt lat="44.0381" lon="4.05567">
        <ele>114</ele>
        <time>2019-10-03T16:13:59Z</time>
      </trkpt>
      <trkpt lat="44.03797" lon="4.05594">
        <ele>114</ele>
        <time>2019-10-03T16:14:03Z</time>
      </trkpt>
      <trkpt lat="44.03786" lon="4.05622">
        <ele>114</ele>
        <time>2019-10-03T16:14:07Z</time>
      </trkpt>
      <trkpt lat="44.03774" lon="4.05648">
        <ele>114</ele>
        <time>2019-10-03T16:14:11Z</time>
      </trkpt>
      <trkpt lat="44.03762" lon="4.05675">
        <ele>113</ele>
        <time>2019-10-03T16:14:15Z</time>
      </trkpt>
      <trkpt lat="44.03749" lon="4.057">
        <ele>113</ele>
        <time>2019-10-03T16:14:19Z</time>
      </trkpt>
      <trkpt lat="44.03736" lon="4.05726">
        <ele>113</ele>
        <time>2019-10-03T16:14:23Z</time>
      </trkpt>
      <trkpt lat="44.03722" lon="4.0575">
        <ele>113</ele>
        <time>2019-10-03T16:14:27Z</time>
      </trkpt>
      <trkpt lat="44.03709" lon="4.05775">
        <ele>112</ele>
        <time>2019-10-03T16:14:31Z</time>
      </trkpt>
      <trkpt lat="44.03696" lon="4.058">
        <ele>112</ele>
        <time>2019-10-03T16:14:35Z</time>
      </trkpt>
      <trkpt lat="44.03683" lon="4.05824">
        <ele>112</ele>
        <time>2019-10-03T16:14:39Z</time>
      </trkpt>
      <trkpt lat="44.0367" lon="4.05849">
        <ele>112</ele>
        <time>2019-10-03T16:14:43Z</time>
      </trkpt>
      <trkpt lat="44.03657" lon="4.05873">
        <ele>112</ele>
        <time>2019-10-03T16:14:47Z</time>
      </trkpt>
      <trkpt lat="44.03643" lon="4.05898">
        <ele>112</ele>
        <time>2019-10-03T16:14:51Z</time>
      </trkpt>
      <trkpt lat="44.03628" lon="4.05922">
        <ele>112</ele>
        <time>2019-10-03T16:14:55Z</time>
      </trkpt>
      <trkpt lat="44.03612" lon="4.05945">
        <ele>112</ele>
        <time>2019-10-03T16:14:59Z</time>
      </trkpt>
      <trkpt lat="44.03596" lon="4.05969">
        <ele>112</ele>
        <time>2019-10-03T16:15:03Z</time>
      </trkpt>
      <trkpt lat="44.03583" lon="4.05987">
        <ele>112</ele>
        <time>2019-10-03T16:15:06Z</time>
      </trkpt>
      <trkpt lat="44.03571" lon="4.06006">
        <ele>112</ele>
        <time>2019-10-03T16:15:09Z</time>
      </trkpt>
      <trkpt lat="44.03557" lon="4.06025">
        <ele>112</ele>
        <time>2019-10-03T16:15:12Z</time>
      </trkpt>
      <trkpt lat="44.03545" lon="4.06044">
        <ele>112</ele>
        <time>2019-10-03T16:15:15Z</time>
      </trkpt>
      <trkpt lat="44.03541" lon="4.06051">
        <ele>112</ele>
        <time>2019-10-03T16:15:16Z</time>
      </trkpt>
      <trkpt lat="44.03533" lon="4.06074">
        <ele>112</ele>
        <time>2019-10-03T16:15:19Z</time>
      </trkpt>
      <trkpt lat="44.03532" lon="4.06082">
        <ele>112</ele>
        <time>2019-10-03T16:15:20Z</time>
      </trkpt>
      <trkpt lat="44.03527" lon="4.06112">
        <ele>112</ele>
        <time>2019-10-03T16:15:24Z</time>
      </trkpt>
      <trkpt lat="44.03523" lon="4.06139">
        <ele>112</ele>
        <time>2019-10-03T16:15:28Z</time>
      </trkpt>
      <trkpt lat="44.03517" lon="4.06168">
        <ele>112</ele>
        <time>2019-10-03T16:15:33Z</time>
      </trkpt>
      <trkpt lat="44.03514" lon="4.06178">
        <ele>112</ele>
        <time>2019-10-03T16:15:35Z</time>
      </trkpt>
      <trkpt lat="44.03503" lon="4.06207">
        <ele>112</ele>
        <time>2019-10-03T16:15:41Z</time>
      </trkpt>
      <trkpt lat="44.03491" lon="4.06232">
        <ele>112</ele>
        <time>2019-10-03T16:15:46Z</time>
      </trkpt>
      <trkpt lat="44.03479" lon="4.06257">
        <ele>112</ele>
        <time>2019-10-03T16:15:51Z</time>
      </trkpt>
      <trkpt lat="44.03468" lon="4.06277">
        <ele>112</ele>
        <time>2019-10-03T16:15:55Z</time>
      </trkpt>
      <trkpt lat="44.03457" lon="4.06299">
        <ele>112</ele>
        <time>2019-10-03T16:15:59Z</time>
      </trkpt>
      <trkpt lat="44.03448" lon="4.06322">
        <ele>112</ele>
        <time>2019-10-03T16:16:03Z</time>
      </trkpt>
      <trkpt lat="44.03442" lon="4.06347">
        <ele>112</ele>
        <time>2019-10-03T16:16:07Z</time>
      </trkpt>
      <trkpt lat="44.03436" lon="4.06374">
        <ele>112</ele>
        <time>2019-10-03T16:16:11Z</time>
      </trkpt>
      <trkpt lat="44.03431" lon="4.06402">
        <ele>112</ele>
        <time>2019-10-03T16:16:15Z</time>
      </trkpt>
      <trkpt lat="44.03427" lon="4.06429">
        <ele>112</ele>
        <time>2019-10-03T16:16:19Z</time>
      </trkpt>
      <trkpt lat="44.03423" lon="4.06459">
        <ele>112</ele>
        <time>2019-10-03T16:16:24Z</time>
      </trkpt>
      <trkpt lat="44.03421" lon="4.06487">
        <ele>112</ele>
        <time>2019-10-03T16:16:29Z</time>
      </trkpt>
      <trkpt lat="44.03422" lon="4.06516">
        <ele>112</ele>
        <time>2019-10-03T16:16:34Z</time>
      </trkpt>
      <trkpt lat="44.03422" lon="4.06527">
        <ele>112</ele>
        <time>2019-10-03T16:16:36Z</time>
      </trkpt>
      <trkpt lat="44.03422" lon="4.0656">
        <ele>112</ele>
        <time>2019-10-03T16:16:42Z</time>
      </trkpt>
      <trkpt lat="44.03419" lon="4.06589">
        <ele>112</ele>
        <time>2019-10-03T16:16:47Z</time>
      </trkpt>
      <trkpt lat="44.03414" lon="4.06615">
        <ele>112</ele>
        <time>2019-10-03T16:16:51Z</time>
      </trkpt>
      <trkpt lat="44.03411" lon="4.0664">
        <ele>112</ele>
        <time>2019-10-03T16:16:55Z</time>
      </trkpt>
      <trkpt lat="44.03407" lon="4.06666">
        <ele>112</ele>
        <time>2019-10-03T16:16:59Z</time>
      </trkpt>
      <trkpt lat="44.03404" lon="4.06691">
        <ele>112</ele>
        <time>2019-10-03T16:17:03Z</time>
      </trkpt>
      <trkpt lat="44.03401" lon="4.06714">
        <ele>112</ele>
        <time>2019-10-03T16:17:07Z</time>
      </trkpt>
      <trkpt lat="44.03396" lon="4.06743">
        <ele>112</ele>
        <time>2019-10-03T16:17:12Z</time>
      </trkpt>
      <trkpt lat="44.03393" lon="4.06771">
        <ele>112</ele>
        <time>2019-10-03T16:17:17Z</time>
      </trkpt>
      <trkpt lat="44.03389" lon="4.06801">
        <ele>112</ele>
        <time>2019-10-03T16:17:22Z</time>
      </trkpt>
      <trkpt lat="44.03385" lon="4.06827">
        <ele>112</ele>
        <time>2019-10-03T16:17:26Z</time>
      </trkpt>
      <trkpt lat="44.03385" lon="4.06833">
        <ele>112</ele>
        <time>2019-10-03T16:17:27Z</time>
      </trkpt>
      <trkpt lat="44.03384" lon="4.06853">
        <ele>112</ele>
        <time>2019-10-03T16:17:30Z</time>
      </trkpt>
      <trkpt lat="44.03386" lon="4.06872">
        <ele>112</ele>
        <time>2019-10-03T16:17:33Z</time>
      </trkpt>
      <trkpt lat="44.03394" lon="4.06901">
        <ele>112</ele>
        <time>2019-10-03T16:17:38Z</time>
      </trkpt>
      <trkpt lat="44.03401" lon="4.06925">
        <ele>112</ele>
        <time>2019-10-03T16:17:42Z</time>
      </trkpt>
      <trkpt lat="44.03407" lon="4.06949">
        <ele>113</ele>
        <time>2019-10-03T16:17:46Z</time>
      </trkpt>
      <trkpt lat="44.03414" lon="4.06974">
        <ele>113</ele>
        <time>2019-10-03T16:17:50Z</time>
      </trkpt>
      <trkpt lat="44.03421" lon="4.07001">
        <ele>114</ele>
        <time>2019-10-03T16:17:54Z</time>
      </trkpt>
      <trkpt lat="44.03429" lon="4.0703">
        <ele>114</ele>
        <time>2019-10-03T16:17:58Z</time>
      </trkpt>
      <trkpt lat="44.03437" lon="4.07061">
        <ele>114</ele>
        <time>2019-10-03T16:18:02Z</time>
      </trkpt>
      <trkpt lat="44.03445" lon="4.07091">
        <ele>114</ele>
        <time>2019-10-03T16:18:06Z</time>
      </trkpt>
      <trkpt lat="44.03453" lon="4.07119">
        <ele>114</ele>
        <time>2019-10-03T16:18:10Z</time>
      </trkpt>
      <trkpt lat="44.0346" lon="4.07144">
        <ele>114</ele>
        <time>2019-10-03T16:18:14Z</time>
      </trkpt>
      <trkpt lat="44.03468" lon="4.0717">
        <ele>114</ele>
        <time>2019-10-03T16:18:18Z</time>
      </trkpt>
      <trkpt lat="44.03475" lon="4.07195">
        <ele>114</ele>
        <time>2019-10-03T16:18:22Z</time>
      </trkpt>
      <trkpt lat="44.03482" lon="4.07221">
        <ele>114</ele>
        <time>2019-10-03T16:18:26Z</time>
      </trkpt>
      <trkpt lat="44.03484" lon="4.07228">
        <ele>114</ele>
        <time>2019-10-03T16:18:27Z</time>
      </trkpt>
      <trkpt lat="44.03498" lon="4.07261">
        <ele>114</ele>
        <time>2019-10-03T16:18:32Z</time>
      </trkpt>
      <trkpt lat="44.03501" lon="4.07268">
        <ele>114</ele>
        <time>2019-10-03T16:18:33Z</time>
      </trkpt>
      <trkpt lat="44.03517" lon="4.07285">
        <ele>114</ele>
        <time>2019-10-03T16:18:36Z</time>
      </trkpt>
      <trkpt lat="44.03534" lon="4.07305">
        <ele>114</ele>
        <time>2019-10-03T16:18:39Z</time>
      </trkpt>
      <trkpt lat="44.0355" lon="4.07329">
        <ele>114</ele>
        <time>2019-10-03T16:18:42Z</time>
      </trkpt>
      <trkpt lat="44.03556" lon="4.07338">
        <ele>114</ele>
        <time>2019-10-03T16:18:43Z</time>
      </trkpt>
      <trkpt lat="44.03576" lon="4.07382">
        <ele>114</ele>
        <time>2019-10-03T16:18:48Z</time>
      </trkpt>
      <trkpt lat="44.03584" lon="4.07406">
        <ele>114</ele>
        <time>2019-10-03T16:18:51Z</time>
      </trkpt>
      <trkpt lat="44.03591" lon="4.07426">
        <ele>114</ele>
        <time>2019-10-03T16:18:54Z</time>
      </trkpt>
      <trkpt lat="44.03604" lon="4.07452">
        <ele>114</ele>
        <time>2019-10-03T16:18:59Z</time>
      </trkpt>
      <trkpt lat="44.03606" lon="4.07457">
        <ele>114</ele>
        <time>2019-10-03T16:19:00Z</time>
      </trkpt>
      <trkpt lat="44.03616" lon="4.07484">
        <ele>114</ele>
        <time>2019-10-03T16:19:06Z</time>
      </trkpt>
      <trkpt lat="44.03624" lon="4.0751">
        <ele>114</ele>
        <time>2019-10-03T16:19:12Z</time>
      </trkpt>
      <trkpt lat="44.03632" lon="4.07533">
        <ele>114</ele>
        <time>2019-10-03T16:19:18Z</time>
      </trkpt>
      <trkpt lat="44.03639" lon="4.07557">
        <ele>114</ele>
        <time>2019-10-03T16:19:25Z</time>
      </trkpt>
      <trkpt lat="44.03646" lon="4.07581">
        <ele>114</ele>
        <time>2019-10-03T16:19:32Z</time>
      </trkpt>
      <trkpt lat="44.03651" lon="4.07608">
        <ele>114</ele>
        <time>2019-10-03T16:19:39Z</time>
      </trkpt>
      <trkpt lat="44.03651" lon="4.07633">
        <ele>115</ele>
        <time>2019-10-03T16:19:45Z</time>
      </trkpt>
      <trkpt lat="44.03644" lon="4.07658">
        <ele>116</ele>
        <time>2019-10-03T16:19:52Z</time>
      </trkpt>
      <trkpt lat="44.03634" lon="4.07682">
        <ele>116</ele>
        <time>2019-10-03T16:20:00Z</time>
      </trkpt>
      <trkpt lat="44.03631" lon="4.07707">
        <ele>116</ele>
        <time>2019-10-03T16:20:07Z</time>
      </trkpt>
      <trkpt lat="44.03636" lon="4.07726">
        <ele>116</ele>
        <time>2019-10-03T16:20:12Z</time>
      </trkpt>
      <trkpt lat="44.03644" lon="4.07752">
        <ele>117</ele>
        <time>2019-10-03T16:20:18Z</time>
      </trkpt>
      <trkpt lat="44.03653" lon="4.07778">
        <ele>117</ele>
        <time>2019-10-03T16:20:24Z</time>
      </trkpt>
      <trkpt lat="44.03662" lon="4.07802">
        <ele>118</ele>
        <time>2019-10-03T16:20:29Z</time>
      </trkpt>
      <trkpt lat="44.03671" lon="4.07827">
        <ele>118</ele>
        <time>2019-10-03T16:20:34Z</time>
      </trkpt>
      <trkpt lat="44.0368" lon="4.07851">
        <ele>118</ele>
        <time>2019-10-03T16:20:39Z</time>
      </trkpt>
      <trkpt lat="44.03686" lon="4.07873">
        <ele>118</ele>
        <time>2019-10-03T16:20:44Z</time>
      </trkpt>
      <trkpt lat="44.03687" lon="4.07881">
        <ele>118</ele>
        <time>2019-10-03T16:20:46Z</time>
      </trkpt>
      <trkpt lat="44.03698" lon="4.07883">
        <ele>118</ele>
        <time>2019-10-03T16:21:58Z</time>
      </trkpt>
      <trkpt lat="44.03701" lon="4.07888">
        <ele>118</ele>
        <time>2019-10-03T16:22:00Z</time>
      </trkpt>
      <trkpt lat="44.0371" lon="4.07914">
        <ele>118</ele>
        <time>2019-10-03T16:22:06Z</time>
      </trkpt>
      <trkpt lat="44.03719" lon="4.0794">
        <ele>118</ele>
        <time>2019-10-03T16:22:11Z</time>
      </trkpt>
      <trkpt lat="44.0373" lon="4.07966">
        <ele>118</ele>
        <time>2019-10-03T16:22:16Z</time>
      </trkpt>
      <trkpt lat="44.03739" lon="4.07987">
        <ele>118</ele>
        <time>2019-10-03T16:22:20Z</time>
      </trkpt>
      <trkpt lat="44.03754" lon="4.08">
        <ele>118</ele>
        <time>2019-10-03T16:22:25Z</time>
      </trkpt>
      <trkpt lat="44.03763" lon="4.08002">
        <ele>118</ele>
        <time>2019-10-03T16:22:28Z</time>
      </trkpt>
      <trkpt lat="44.03777" lon="4.08008">
        <ele>118</ele>
        <time>2019-10-03T16:22:33Z</time>
      </trkpt>
      <trkpt lat="44.03792" lon="4.08022">
        <ele>118</ele>
        <time>2019-10-03T16:22:38Z</time>
      </trkpt>
      <trkpt lat="44.03811" lon="4.08036">
        <ele>118</ele>
        <time>2019-10-03T16:22:43Z</time>
      </trkpt>
      <trkpt lat="44.03829" lon="4.08051">
        <ele>118</ele>
        <time>2019-10-03T16:22:48Z</time>
      </trkpt>
      <trkpt lat="44.03835" lon="4.08057">
        <ele>119</ele>
        <time>2019-10-03T16:22:50Z</time>
      </trkpt>
      <trkpt lat="44.03856" lon="4.08068">
        <ele>119</ele>
        <time>2019-10-03T16:22:55Z</time>
      </trkpt>
      <trkpt lat="44.03872" lon="4.08077">
        <ele>120</ele>
        <time>2019-10-03T16:22:59Z</time>
      </trkpt>
      <trkpt lat="44.03876" lon="4.0808">
        <ele>120</ele>
        <time>2019-10-03T16:23:00Z</time>
      </trkpt>
      <trkpt lat="44.03883" lon="4.08087">
        <ele>120</ele>
        <time>2019-10-03T16:23:02Z</time>
      </trkpt>
      <trkpt lat="44.03889" lon="4.08093">
        <ele>120</ele>
        <time>2019-10-03T16:23:04Z</time>
      </trkpt>
      <trkpt lat="44.03909" lon="4.0811">
        <ele>120</ele>
        <time>2019-10-03T16:23:10Z</time>
      </trkpt>
      <trkpt lat="44.03925" lon="4.08124">
        <ele>120</ele>
        <time>2019-10-03T16:23:15Z</time>
      </trkpt>
      <trkpt lat="44.03942" lon="4.08137">
        <ele>121</ele>
        <time>2019-10-03T16:23:20Z</time>
      </trkpt>
      <trkpt lat="44.03959" lon="4.08154">
        <ele>122</ele>
        <time>2019-10-03T16:23:26Z</time>
      </trkpt>
      <trkpt lat="44.03975" lon="4.0816">
        <ele>122</ele>
        <time>2019-10-03T16:23:30Z</time>
      </trkpt>
      <trkpt lat="44.03991" lon="4.08177">
        <ele>122</ele>
        <time>2019-10-03T16:23:35Z</time>
      </trkpt>
      <trkpt lat="44.04001" lon="4.08187">
        <ele>122</ele>
        <time>2019-10-03T16:23:38Z</time>
      </trkpt>
      <trkpt lat="44.04017" lon="4.08196">
        <ele>122</ele>
        <time>2019-10-03T16:23:42Z</time>
      </trkpt>
      <trkpt lat="44.0404" lon="4.08204">
        <ele>122</ele>
        <time>2019-10-03T16:23:48Z</time>
      </trkpt>
      <trkpt lat="44.04044" lon="4.08205">
        <ele>122</ele>
        <time>2019-10-03T16:23:49Z</time>
      </trkpt>
      <trkpt lat="44.04062" lon="4.08211">
        <ele>122</ele>
        <time>2019-10-03T16:23:54Z</time>
      </trkpt>
      <trkpt lat="44.04065" lon="4.08212">
        <ele>122</ele>
        <time>2019-10-03T16:23:55Z</time>
      </trkpt>
      <trkpt lat="44.04083" lon="4.08216">
        <ele>122</ele>
        <time>2019-10-03T16:24:00Z</time>
      </trkpt>
      <trkpt lat="44.04102" lon="4.08225">
        <ele>122</ele>
        <time>2019-10-03T16:24:06Z</time>
      </trkpt>
      <trkpt lat="44.04118" lon="4.0824">
        <ele>122</ele>
        <time>2019-10-03T16:24:12Z</time>
      </trkpt>
      <trkpt lat="44.04121" lon="4.08244">
        <ele>122</ele>
        <time>2019-10-03T16:24:14Z</time>
      </trkpt>
      <trkpt lat="44.04121" lon="4.08239">
        <ele>122</ele>
        <time>2019-10-03T16:24:18Z</time>
      </trkpt>
      <trkpt lat="44.04113" lon="4.0823">
        <ele>122</ele>
        <time>2019-10-03T16:24:23Z</time>
      </trkpt>
      <trkpt lat="44.04109" lon="4.08216">
        <ele>122</ele>
        <time>2019-10-03T16:24:28Z</time>
      </trkpt>
      <trkpt lat="44.0411" lon="4.08213">
        <ele>122</ele>
        <time>2019-10-03T16:24:29Z</time>
      </trkpt>
      <trkpt lat="44.04117" lon="4.08204">
        <ele>122</ele>
        <time>2019-10-03T16:24:33Z</time>
      </trkpt>
      <trkpt lat="44.04128" lon="4.08186">
        <ele>122</ele>
        <time>2019-10-03T16:24:40Z</time>
      </trkpt>
      <trkpt lat="44.04138" lon="4.08163">
        <ele>122</ele>
        <time>2019-10-03T16:24:48Z</time>
      </trkpt>
      <trkpt lat="44.04147" lon="4.0814">
        <ele>122</ele>
        <time>2019-10-03T16:24:56Z</time>
      </trkpt>
      <trkpt lat="44.04154" lon="4.08127">
        <ele>122</ele>
        <time>2019-10-03T16:25:02Z</time>
      </trkpt>
      <trkpt lat="44.04165" lon="4.08114">
        <ele>122</ele>
        <time>2019-10-03T16:25:09Z</time>
      </trkpt>
      <trkpt lat="44.04174" lon="4.08102">
        <ele>123</ele>
        <time>2019-10-03T16:25:15Z</time>
      </trkpt>
      <trkpt lat="44.04189" lon="4.08085">
        <ele>124</ele>
        <time>2019-10-03T16:25:24Z</time>
      </trkpt>
      <trkpt lat="44.04189" lon="4.08083">
        <ele>124</ele>
        <time>2019-10-03T16:25:28Z</time>
      </trkpt>
      <trkpt lat="44.04191" lon="4.0808">
        <ele>126</ele>
        <time>2019-10-03T16:25:36Z</time>
      </trkpt>
      <trkpt lat="44.04198" lon="4.08072">
        <ele>126</ele>
        <time>2019-10-03T16:25:43Z</time>
      </trkpt>
      <trkpt lat="44.04199" lon="4.08071">
        <ele>126</ele>
        <time>2019-10-03T16:25:48Z</time>
      </trkpt>
      <trkpt lat="44.042" lon="4.08073">
        <ele>128</ele>
        <time>2019-10-03T16:26:09Z</time>
      </trkpt>
      <trkpt lat="44.04203" lon="4.08069">
        <ele>128</ele>
        <time>2019-10-03T16:26:17Z</time>
      </trkpt>
      <trkpt lat="44.04212" lon="4.08058">
        <ele>129</ele>
        <time>2019-10-03T16:26:23Z</time>
      </trkpt>
      <trkpt lat="44.04217" lon="4.08051">
        <ele>129</ele>
        <time>2019-10-03T16:26:27Z</time>
      </trkpt>
      <trkpt lat="44.04221" lon="4.08041">
        <ele>130</ele>
        <time>2019-10-03T16:26:32Z</time>
      </trkpt>
      <trkpt lat="44.04231" lon="4.08023">
        <ele>130</ele>
        <time>2019-10-03T16:26:40Z</time>
      </trkpt>
      <trkpt lat="44.04238" lon="4.08007">
        <ele>132</ele>
        <time>2019-10-03T16:26:47Z</time>
      </trkpt>
      <trkpt lat="44.04247" lon="4.07989">
        <ele>132</ele>
        <time>2019-10-03T16:26:55Z</time>
      </trkpt>
      <trkpt lat="44.04253" lon="4.07978">
        <ele>134</ele>
        <time>2019-10-03T16:27:01Z</time>
      </trkpt>
      <trkpt lat="44.04261" lon="4.07956">
        <ele>135</ele>
        <time>2019-10-03T16:27:11Z</time>
      </trkpt>
      <trkpt lat="44.04266" lon="4.07945">
        <ele>136</ele>
        <time>2019-10-03T16:27:18Z</time>
      </trkpt>
      <trkpt lat="44.04268" lon="4.0794">
        <ele>136</ele>
        <time>2019-10-03T16:27:23Z</time>
      </trkpt>
      <trkpt lat="44.04273" lon="4.07934">
        <ele>138</ele>
        <time>2019-10-03T16:27:30Z</time>
      </trkpt>
      <trkpt lat="44.04283" lon="4.07929">
        <ele>139</ele>
        <time>2019-10-03T16:27:41Z</time>
      </trkpt>
      <trkpt lat="44.04294" lon="4.07931">
        <ele>139</ele>
        <time>2019-10-03T16:27:51Z</time>
      </trkpt>
      <trkpt lat="44.04303" lon="4.07934">
        <ele>139</ele>
        <time>2019-10-03T16:27:59Z</time>
      </trkpt>
      <trkpt lat="44.04307" lon="4.07935">
        <ele>140</ele>
        <time>2019-10-03T16:28:04Z</time>
      </trkpt>
      <trkpt lat="44.04317" lon="4.07934">
        <ele>140</ele>
        <time>2019-10-03T16:28:13Z</time>
      </trkpt>
      <trkpt lat="44.04318" lon="4.07933">
        <ele>141</ele>
        <time>2019-10-03T16:28:14Z</time>
      </trkpt>
      <trkpt lat="44.04325" lon="4.07932">
        <ele>142</ele>
        <time>2019-10-03T16:28:22Z</time>
      </trkpt>
      <trkpt lat="44.04335" lon="4.0793">
        <ele>143</ele>
        <time>2019-10-03T16:28:32Z</time>
      </trkpt>
      <trkpt lat="44.04344" lon="4.07928">
        <ele>145</ele>
        <time>2019-10-03T16:28:41Z</time>
      </trkpt>
      <trkpt lat="44.04347" lon="4.07925">
        <ele>146</ele>
        <time>2019-10-03T16:28:46Z</time>
      </trkpt>
      <trkpt lat="44.04352" lon="4.07924">
        <ele>148</ele>
        <time>2019-10-03T16:28:55Z</time>
      </trkpt>
      <trkpt lat="44.04357" lon="4.07927">
        <ele>149</ele>
        <time>2019-10-03T16:29:04Z</time>
      </trkpt>
      <trkpt lat="44.04367" lon="4.07935">
        <ele>150</ele>
        <time>2019-10-03T16:29:10Z</time>
      </trkpt>
      <trkpt lat="44.04374" lon="4.07943">
        <ele>151</ele>
        <time>2019-10-03T16:29:14Z</time>
      </trkpt>
      <trkpt lat="44.0438" lon="4.07948">
        <ele>151</ele>
        <time>2019-10-03T16:29:18Z</time>
      </trkpt>
      <trkpt lat="44.04396" lon="4.0796">
        <ele>151</ele>
        <time>2019-10-03T16:29:26Z</time>
      </trkpt>
      <trkpt lat="44.04414" lon="4.07975">
        <ele>152</ele>
        <time>2019-10-03T16:29:33Z</time>
      </trkpt>
      <trkpt lat="44.0443" lon="4.07989">
        <ele>153</ele>
        <time>2019-10-03T16:29:39Z</time>
      </trkpt>
      <trkpt lat="44.04444" lon="4.08006">
        <ele>153</ele>
        <time>2019-10-03T16:29:45Z</time>
      </trkpt>
      <trkpt lat="44.04458" lon="4.08022">
        <ele>153</ele>
        <time>2019-10-03T16:29:52Z</time>
      </trkpt>
      <trkpt lat="44.04474" lon="4.08039">
        <ele>154</ele>
        <time>2019-10-03T16:29:59Z</time>
      </trkpt>
      <trkpt lat="44.04489" lon="4.08056">
        <ele>155</ele>
        <time>2019-10-03T16:30:05Z</time>
      </trkpt>
      <trkpt lat="44.04504" lon="4.08072">
        <ele>155</ele>
        <time>2019-10-03T16:30:12Z</time>
      </trkpt>
      <trkpt lat="44.0452" lon="4.08086">
        <ele>155</ele>
        <time>2019-10-03T16:30:20Z</time>
      </trkpt>
      <trkpt lat="44.04535" lon="4.08097">
        <ele>157</ele>
        <time>2019-10-03T16:30:27Z</time>
      </trkpt>
      <trkpt lat="44.04551" lon="4.08108">
        <ele>157</ele>
        <time>2019-10-03T16:30:35Z</time>
      </trkpt>
      <trkpt lat="44.04567" lon="4.08121">
        <ele>158</ele>
        <time>2019-10-03T16:30:43Z</time>
      </trkpt>
      <trkpt lat="44.0458" lon="4.08129">
        <ele>159</ele>
        <time>2019-10-03T16:30:49Z</time>
      </trkpt>
      <trkpt lat="44.04598" lon="4.08139">
        <ele>159</ele>
        <time>2019-10-03T16:30:56Z</time>
      </trkpt>
      <trkpt lat="44.04616" lon="4.08149">
        <ele>159</ele>
        <time>2019-10-03T16:31:01Z</time>
      </trkpt>
      <trkpt lat="44.04627" lon="4.0816">
        <ele>159</ele>
        <time>2019-10-03T16:31:06Z</time>
      </trkpt>
      <trkpt lat="44.04637" lon="4.08172">
        <ele>160</ele>
        <time>2019-10-03T16:31:12Z</time>
      </trkpt>
      <trkpt lat="44.04648" lon="4.08184">
        <ele>161</ele>
        <time>2019-10-03T16:31:19Z</time>
      </trkpt>
      <trkpt lat="44.04658" lon="4.08197">
        <ele>161</ele>
        <time>2019-10-03T16:31:27Z</time>
      </trkpt>
      <trkpt lat="44.04665" lon="4.08206">
        <ele>162</ele>
        <time>2019-10-03T16:31:33Z</time>
      </trkpt>
      <trkpt lat="44.0467" lon="4.08218">
        <ele>162</ele>
        <time>2019-10-03T16:31:39Z</time>
      </trkpt>
      <trkpt lat="44.04678" lon="4.08231">
        <ele>162</ele>
        <time>2019-10-03T16:31:47Z</time>
      </trkpt>
      <trkpt lat="44.04682" lon="4.0824">
        <ele>163</ele>
        <time>2019-10-03T16:31:52Z</time>
      </trkpt>
      <trkpt lat="44.04686" lon="4.08247">
        <ele>163</ele>
        <time>2019-10-03T16:31:57Z</time>
      </trkpt>
      <trkpt lat="44.04687" lon="4.0825">
        <ele>163</ele>
        <time>2019-10-03T16:31:59Z</time>
      </trkpt>
      <trkpt lat="44.04691" lon="4.08261">
        <ele>163</ele>
        <time>2019-10-03T16:32:06Z</time>
      </trkpt>
      <trkpt lat="44.04692" lon="4.08262">
        <ele>164</ele>
        <time>2019-10-03T16:32:07Z</time>
      </trkpt>
      <trkpt lat="44.04694" lon="4.08276">
        <ele>164</ele>
        <time>2019-10-03T16:32:14Z</time>
      </trkpt>
      <trkpt lat="44.04695" lon="4.08281">
        <ele>165</ele>
        <time>2019-10-03T16:32:16Z</time>
      </trkpt>
      <trkpt lat="44.04697" lon="4.08293">
        <ele>165</ele>
        <time>2019-10-03T16:32:22Z</time>
      </trkpt>
      <trkpt lat="44.04698" lon="4.08297">
        <ele>165</ele>
        <time>2019-10-03T16:32:24Z</time>
      </trkpt>
      <trkpt lat="44.04699" lon="4.0831">
        <ele>165</ele>
        <time>2019-10-03T16:32:31Z</time>
      </trkpt>
      <trkpt lat="44.04704" lon="4.08322">
        <ele>166</ele>
        <time>2019-10-03T16:32:37Z</time>
      </trkpt>
      <trkpt lat="44.04705" lon="4.08327">
        <ele>166</ele>
        <time>2019-10-03T16:32:39Z</time>
      </trkpt>
      <trkpt lat="44.04711" lon="4.08351">
        <ele>167</ele>
        <time>2019-10-03T16:32:45Z</time>
      </trkpt>
      <trkpt lat="44.04716" lon="4.08376">
        <ele>167</ele>
        <time>2019-10-03T16:32:50Z</time>
      </trkpt>
      <trkpt lat="44.0472" lon="4.08401">
        <ele>168</ele>
        <time>2019-10-03T16:32:56Z</time>
      </trkpt>
      <trkpt lat="44.0472" lon="4.08425">
        <ele>169</ele>
        <time>2019-10-03T16:33:01Z</time>
      </trkpt>
      <trkpt lat="44.04719" lon="4.08439">
        <ele>170</ele>
        <time>2019-10-03T16:33:06Z</time>
      </trkpt>
      <trkpt lat="44.04718" lon="4.08451">
        <ele>171</ele>
        <time>2019-10-03T16:33:12Z</time>
      </trkpt>
      <trkpt lat="44.04719" lon="4.08453">
        <ele>171</ele>
        <time>2019-10-03T16:33:13Z</time>
      </trkpt>
      <trkpt lat="44.0472" lon="4.08458">
        <ele>171</ele>
        <time>2019-10-03T16:33:16Z</time>
      </trkpt>
      <trkpt lat="44.04721" lon="4.08466">
        <ele>172</ele>
        <time>2019-10-03T16:33:25Z</time>
      </trkpt>
      <trkpt lat="44.04723" lon="4.08471">
        <ele>172</ele>
        <time>2019-10-03T16:33:29Z</time>
      </trkpt>
      <trkpt lat="44.04727" lon="4.08478">
        <ele>173</ele>
        <time>2019-10-03T16:33:36Z</time>
      </trkpt>
      <trkpt lat="44.04728" lon="4.08479">
        <ele>173</ele>
        <time>2019-10-03T16:33:39Z</time>
      </trkpt>
      <trkpt lat="44.04731" lon="4.08492">
        <ele>174</ele>
        <time>2019-10-03T16:33:49Z</time>
      </trkpt>
      <trkpt lat="44.04733" lon="4.08502">
        <ele>175</ele>
        <time>2019-10-03T16:33:56Z</time>
      </trkpt>
      <trkpt lat="44.04736" lon="4.08507">
        <ele>176</ele>
        <time>2019-10-03T16:34:01Z</time>
      </trkpt>
      <trkpt lat="44.04744" lon="4.0851">
        <ele>177</ele>
        <time>2019-10-03T16:34:10Z</time>
      </trkpt>
      <trkpt lat="44.04751" lon="4.0851">
        <ele>178</ele>
        <time>2019-10-03T16:34:17Z</time>
      </trkpt>
      <trkpt lat="44.04761" lon="4.08508">
        <ele>178</ele>
        <time>2019-10-03T16:34:26Z</time>
      </trkpt>
      <trkpt lat="44.04769" lon="4.08507">
        <ele>179</ele>
        <time>2019-10-03T16:34:35Z</time>
      </trkpt>
      <trkpt lat="44.04779" lon="4.08509">
        <ele>180</ele>
        <time>2019-10-03T16:34:44Z</time>
      </trkpt>
      <trkpt lat="44.04784" lon="4.08505">
        <ele>181</ele>
        <time>2019-10-03T16:34:50Z</time>
      </trkpt>
      <trkpt lat="44.0479" lon="4.08506">
        <ele>181</ele>
        <time>2019-10-03T16:34:58Z</time>
      </trkpt>
      <trkpt lat="44.04795" lon="4.08508">
        <ele>182</ele>
        <time>2019-10-03T16:35:10Z</time>
      </trkpt>
      <trkpt lat="44.04802" lon="4.08513">
        <ele>182</ele>
        <time>2019-10-03T16:35:17Z</time>
      </trkpt>
      <trkpt lat="44.04809" lon="4.08522">
        <ele>182</ele>
        <time>2019-10-03T16:35:23Z</time>
      </trkpt>
      <trkpt lat="44.04816" lon="4.08541">
        <ele>182</ele>
        <time>2019-10-03T16:35:29Z</time>
      </trkpt>
      <trkpt lat="44.04821" lon="4.08558">
        <ele>182</ele>
        <time>2019-10-03T16:35:34Z</time>
      </trkpt>
      <trkpt lat="44.04825" lon="4.08572">
        <ele>182</ele>
        <time>2019-10-03T16:35:38Z</time>
      </trkpt>
      <trkpt lat="44.04836" lon="4.08582">
        <ele>182</ele>
        <time>2019-10-03T16:35:43Z</time>
      </trkpt>
      <trkpt lat="44.04838" lon="4.08583">
        <ele>182</ele>
        <time>2019-10-03T16:35:44Z</time>
      </trkpt>
      <trkpt lat="44.04845" lon="4.08594">
        <ele>182</ele>
        <time>2019-10-03T16:35:48Z</time>
      </trkpt>
      <trkpt lat="44.0485" lon="4.08607">
        <ele>182</ele>
        <time>2019-10-03T16:35:52Z</time>
      </trkpt>
      <trkpt lat="44.04865" lon="4.0862">
        <ele>183</ele>
        <time>2019-10-03T16:35:59Z</time>
      </trkpt>
      <trkpt lat="44.04878" lon="4.08628">
        <ele>183</ele>
        <time>2019-10-03T16:36:05Z</time>
      </trkpt>
      <trkpt lat="44.04882" lon="4.08632">
        <ele>183</ele>
        <time>2019-10-03T16:36:07Z</time>
      </trkpt>
      <trkpt lat="44.04893" lon="4.0863">
        <ele>184</ele>
        <time>2019-10-03T16:36:12Z</time>
      </trkpt>
      <trkpt lat="44.04901" lon="4.08627">
        <ele>184</ele>
        <time>2019-10-03T16:36:17Z</time>
      </trkpt>
      <trkpt lat="44.04913" lon="4.08627">
        <ele>185</ele>
        <time>2019-10-03T16:36:23Z</time>
      </trkpt>
      <trkpt lat="44.04922" lon="4.08627">
        <ele>185</ele>
        <time>2019-10-03T16:36:29Z</time>
      </trkpt>
      <trkpt lat="44.04927" lon="4.08624">
        <ele>186</ele>
        <time>2019-10-03T16:36:32Z</time>
      </trkpt>
      <trkpt lat="44.04933" lon="4.08623">
        <ele>186</ele>
        <time>2019-10-03T16:36:36Z</time>
      </trkpt>
      <trkpt lat="44.04941" lon="4.08617">
        <ele>186</ele>
        <time>2019-10-03T16:36:42Z</time>
      </trkpt>
      <trkpt lat="44.04942" lon="4.08616">
        <ele>187</ele>
        <time>2019-10-03T16:36:43Z</time>
      </trkpt>
      <trkpt lat="44.04949" lon="4.08612">
        <ele>187</ele>
        <time>2019-10-03T16:36:48Z</time>
      </trkpt>
      <trkpt lat="44.0495" lon="4.08611">
        <ele>187</ele>
        <time>2019-10-03T16:36:49Z</time>
      </trkpt>
      <trkpt lat="44.04951" lon="4.0861">
        <ele>187</ele>
        <time>2019-10-03T16:36:50Z</time>
      </trkpt>
      <trkpt lat="44.04957" lon="4.08605">
        <ele>188</ele>
        <time>2019-10-03T16:36:55Z</time>
      </trkpt>
      <trkpt lat="44.04961" lon="4.08604">
        <ele>188</ele>
        <time>2019-10-03T16:36:57Z</time>
      </trkpt>
      <trkpt lat="44.04971" lon="4.08598">
        <ele>188</ele>
        <time>2019-10-03T16:37:03Z</time>
      </trkpt>
      <trkpt lat="44.04972" lon="4.08597">
        <ele>188</ele>
        <time>2019-10-03T16:37:04Z</time>
      </trkpt>
      <trkpt lat="44.04975" lon="4.08592">
        <ele>188</ele>
        <time>2019-10-03T16:37:07Z</time>
      </trkpt>
      <trkpt lat="44.04977" lon="4.0859">
        <ele>188</ele>
        <time>2019-10-03T16:37:09Z</time>
      </trkpt>
      <trkpt lat="44.04984" lon="4.0859">
        <ele>188</ele>
        <time>2019-10-03T16:37:13Z</time>
      </trkpt>
      <trkpt lat="44.04992" lon="4.08588">
        <ele>188</ele>
        <time>2019-10-03T16:37:16Z</time>
      </trkpt>
      <trkpt lat="44.04998" lon="4.08591">
        <ele>188</ele>
        <time>2019-10-03T16:37:18Z</time>
      </trkpt>
      <trkpt lat="44.05015" lon="4.086">
        <ele>188</ele>
        <time>2019-10-03T16:37:23Z</time>
      </trkpt>
      <trkpt lat="44.0503" lon="4.08612">
        <ele>188</ele>
        <time>2019-10-03T16:37:28Z</time>
      </trkpt>
      <trkpt lat="44.0504" lon="4.08622">
        <ele>188</ele>
        <time>2019-10-03T16:37:32Z</time>
      </trkpt>
      <trkpt lat="44.05049" lon="4.08633">
        <ele>188</ele>
        <time>2019-10-03T16:37:38Z</time>
      </trkpt>
      <trkpt lat="44.05063" lon="4.08634">
        <ele>188</ele>
        <time>2019-10-03T16:37:43Z</time>
      </trkpt>
      <trkpt lat="44.05076" lon="4.08639">
        <ele>187</ele>
        <time>2019-10-03T16:37:47Z</time>
      </trkpt>
      <trkpt lat="44.05096" lon="4.08648">
        <ele>187</ele>
        <time>2019-10-03T16:37:52Z</time>
      </trkpt>
      <trkpt lat="44.05109" lon="4.08654">
        <ele>186</ele>
        <time>2019-10-03T16:37:56Z</time>
      </trkpt>
      <trkpt lat="44.05123" lon="4.08653">
        <ele>186</ele>
        <time>2019-10-03T16:38:00Z</time>
      </trkpt>
      <trkpt lat="44.05133" lon="4.08655">
        <ele>186</ele>
        <time>2019-10-03T16:38:03Z</time>
      </trkpt>
      <trkpt lat="44.0515" lon="4.08654">
        <ele>185</ele>
        <time>2019-10-03T16:38:08Z</time>
      </trkpt>
      <trkpt lat="44.05159" lon="4.08666">
        <ele>184</ele>
        <time>2019-10-03T16:38:13Z</time>
      </trkpt>
      <trkpt lat="44.05162" lon="4.08668">
        <ele>184</ele>
        <time>2019-10-03T16:38:14Z</time>
      </trkpt>
      <trkpt lat="44.05177" lon="4.0868">
        <ele>183</ele>
        <time>2019-10-03T16:38:19Z</time>
      </trkpt>
      <trkpt lat="44.05186" lon="4.08683">
        <ele>183</ele>
        <time>2019-10-03T16:38:22Z</time>
      </trkpt>
      <trkpt lat="44.05189" lon="4.08684">
        <ele>182</ele>
        <time>2019-10-03T16:38:24Z</time>
      </trkpt>
      <trkpt lat="44.05195" lon="4.08692">
        <ele>181</ele>
        <time>2019-10-03T16:38:30Z</time>
      </trkpt>
      <trkpt lat="44.052" lon="4.08701">
        <ele>180</ele>
        <time>2019-10-03T16:38:34Z</time>
      </trkpt>
      <trkpt lat="44.05199" lon="4.08709">
        <ele>179</ele>
        <time>2019-10-03T16:38:38Z</time>
      </trkpt>
      <trkpt lat="44.052" lon="4.08714">
        <ele>179</ele>
        <time>2019-10-03T16:38:40Z</time>
      </trkpt>
      <trkpt lat="44.05209" lon="4.08726">
        <ele>178</ele>
        <time>2019-10-03T16:38:46Z</time>
      </trkpt>
      <trkpt lat="44.05208" lon="4.08733">
        <ele>177</ele>
        <time>2019-10-03T16:38:51Z</time>
      </trkpt>
      <trkpt lat="44.05213" lon="4.08737">
        <ele>175</ele>
        <time>2019-10-03T16:39:05Z</time>
      </trkpt>
      <trkpt lat="44.05217" lon="4.08747">
        <ele>173</ele>
        <time>2019-10-03T16:39:17Z</time>
      </trkpt>
      <trkpt lat="44.05219" lon="4.08751">
        <ele>173</ele>
        <time>2019-10-03T16:39:21Z</time>
      </trkpt>
      <trkpt lat="44.05221" lon="4.08754">
        <ele>172</ele>
        <time>2019-10-03T16:39:26Z</time>
      </trkpt>
      <trkpt lat="44.05225" lon="4.08766">
        <ele>170</ele>
        <time>2019-10-03T16:39:45Z</time>
      </trkpt>
      <trkpt lat="44.05223" lon="4.08771">
        <ele>170</ele>
        <time>2019-10-03T16:39:49Z</time>
      </trkpt>
      <trkpt lat="44.05222" lon="4.08777">
        <ele>169</ele>
        <time>2019-10-03T16:39:54Z</time>
      </trkpt>
      <trkpt lat="44.0522" lon="4.08781">
        <ele>168</ele>
        <time>2019-10-03T16:40:00Z</time>
      </trkpt>
      <trkpt lat="44.05219" lon="4.08788">
        <ele>168</ele>
        <time>2019-10-03T16:40:08Z</time>
      </trkpt>
      <trkpt lat="44.05219" lon="4.08802">
        <ele>167</ele>
        <time>2019-10-03T16:40:29Z</time>
      </trkpt>
      <trkpt lat="44.05212" lon="4.08816">
        <ele>167</ele>
        <time>2019-10-03T16:40:49Z</time>
      </trkpt>
      <trkpt lat="44.05208" lon="4.0882">
        <ele>167</ele>
        <time>2019-10-03T16:40:51Z</time>
      </trkpt>
      <trkpt lat="44.05204" lon="4.08827">
        <ele>167</ele>
        <time>2019-10-03T16:40:56Z</time>
      </trkpt>
      <trkpt lat="44.05206" lon="4.08848">
        <ele>167</ele>
        <time>2019-10-03T16:41:42Z</time>
      </trkpt>
      <trkpt lat="44.05212" lon="4.0885">
        <ele>166</ele>
        <time>2019-10-03T16:41:52Z</time>
      </trkpt>
      <trkpt lat="44.05217" lon="4.08857">
        <ele>166</ele>
        <time>2019-10-03T16:41:55Z</time>
      </trkpt>
      <trkpt lat="44.05226" lon="4.0886">
        <ele>165</ele>
        <time>2019-10-03T16:42:00Z</time>
      </trkpt>
      <trkpt lat="44.05229" lon="4.08862">
        <ele>164</ele>
        <time>2019-10-03T16:42:05Z</time>
      </trkpt>
      <trkpt lat="44.05229" lon="4.08862">
        <ele>164</ele>
        <time>2019-10-03T16:42:06Z</time>
      </trkpt>
      <trkpt lat="44.05231" lon="4.08862">
        <ele>160</ele>
        <time>2019-10-03T16:42:37Z</time>
      </trkpt>
      <trkpt lat="44.05228" lon="4.08869">
        <ele>159</ele>
        <time>2019-10-03T16:42:41Z</time>
      </trkpt>
      <trkpt lat="44.05218" lon="4.0888">
        <ele>158</ele>
        <time>2019-10-03T16:42:46Z</time>
      </trkpt>
      <trkpt lat="44.05205" lon="4.08898">
        <ele>156</ele>
        <time>2019-10-03T16:42:52Z</time>
      </trkpt>
      <trkpt lat="44.05193" lon="4.08918">
        <ele>155</ele>
        <time>2019-10-03T16:42:57Z</time>
      </trkpt>
      <trkpt lat="44.05182" lon="4.08939">
        <ele>154</ele>
        <time>2019-10-03T16:43:02Z</time>
      </trkpt>
      <trkpt lat="44.0517" lon="4.08961">
        <ele>152</ele>
        <time>2019-10-03T16:43:07Z</time>
      </trkpt>
      <trkpt lat="44.0516" lon="4.08986">
        <ele>151</ele>
        <time>2019-10-03T16:43:12Z</time>
      </trkpt>
      <trkpt lat="44.05157" lon="4.08997">
        <ele>151</ele>
        <time>2019-10-03T16:43:14Z</time>
      </trkpt>
      <trkpt lat="44.05157" lon="4.09029">
        <ele>150</ele>
        <time>2019-10-03T16:43:19Z</time>
      </trkpt>
      <trkpt lat="44.05157" lon="4.09054">
        <ele>149</ele>
        <time>2019-10-03T16:43:23Z</time>
      </trkpt>
      <trkpt lat="44.05158" lon="4.0906">
        <ele>149</ele>
        <time>2019-10-03T16:43:24Z</time>
      </trkpt>
      <trkpt lat="44.05161" lon="4.09066">
        <ele>148</ele>
        <time>2019-10-03T16:43:27Z</time>
      </trkpt>
      <trkpt lat="44.05162" lon="4.09067">
        <ele>148</ele>
        <time>2019-10-03T16:43:28Z</time>
      </trkpt>
      <trkpt lat="44.05169" lon="4.09073">
        <ele>147</ele>
        <time>2019-10-03T16:43:35Z</time>
      </trkpt>
      <trkpt lat="44.05187" lon="4.09076">
        <ele>146</ele>
        <time>2019-10-03T16:43:40Z</time>
      </trkpt>
      <trkpt lat="44.05209" lon="4.09076">
        <ele>145</ele>
        <time>2019-10-03T16:43:45Z</time>
      </trkpt>
      <trkpt lat="44.05231" lon="4.09077">
        <ele>144</ele>
        <time>2019-10-03T16:43:49Z</time>
      </trkpt>
      <trkpt lat="44.0525" lon="4.09078">
        <ele>144</ele>
        <time>2019-10-03T16:43:52Z</time>
      </trkpt>
      <trkpt lat="44.05273" lon="4.09081">
        <ele>143</ele>
        <time>2019-10-03T16:43:55Z</time>
      </trkpt>
      <trkpt lat="44.05293" lon="4.09085">
        <ele>142</ele>
        <time>2019-10-03T16:43:59Z</time>
      </trkpt>
      <trkpt lat="44.05296" lon="4.09086">
        <ele>142</ele>
        <time>2019-10-03T16:44:00Z</time>
      </trkpt>
      <trkpt lat="44.05307" lon="4.09081">
        <ele>141</ele>
        <time>2019-10-03T16:44:04Z</time>
      </trkpt>
      <trkpt lat="44.05315" lon="4.09077">
        <ele>140</ele>
        <time>2019-10-03T16:44:07Z</time>
      </trkpt>
      <trkpt lat="44.0534" lon="4.09074">
        <ele>138</ele>
        <time>2019-10-03T16:44:13Z</time>
      </trkpt>
      <trkpt lat="44.05343" lon="4.09071">
        <ele>138</ele>
        <time>2019-10-03T16:44:14Z</time>
      </trkpt>
      <trkpt lat="44.05356" lon="4.09048">
        <ele>137</ele>
        <time>2019-10-03T16:44:19Z</time>
      </trkpt>
      <trkpt lat="44.05371" lon="4.09024">
        <ele>136</ele>
        <time>2019-10-03T16:44:24Z</time>
      </trkpt>
      <trkpt lat="44.05383" lon="4.09005">
        <ele>135</ele>
        <time>2019-10-03T16:44:28Z</time>
      </trkpt>
      <trkpt lat="44.05396" lon="4.08987">
        <ele>134</ele>
        <time>2019-10-03T16:44:32Z</time>
      </trkpt>
      <trkpt lat="44.05411" lon="4.0897">
        <ele>133</ele>
        <time>2019-10-03T16:44:36Z</time>
      </trkpt>
      <trkpt lat="44.05418" lon="4.08965">
        <ele>133</ele>
        <time>2019-10-03T16:44:38Z</time>
      </trkpt>
      <trkpt lat="44.05435" lon="4.08954">
        <ele>133</ele>
        <time>2019-10-03T16:44:42Z</time>
      </trkpt>
      <trkpt lat="44.05452" lon="4.08944">
        <ele>132</ele>
        <time>2019-10-03T16:44:46Z</time>
      </trkpt>
      <trkpt lat="44.0547" lon="4.08934">
        <ele>131</ele>
        <time>2019-10-03T16:44:50Z</time>
      </trkpt>
      <trkpt lat="44.05475" lon="4.08932">
        <ele>131</ele>
        <time>2019-10-03T16:44:51Z</time>
      </trkpt>
      <trkpt lat="44.05493" lon="4.08931">
        <ele>130</ele>
        <time>2019-10-03T16:44:55Z</time>
      </trkpt>
      <trkpt lat="44.05498" lon="4.08932">
        <ele>130</ele>
        <time>2019-10-03T16:44:56Z</time>
      </trkpt>
      <trkpt lat="44.05517" lon="4.08933">
        <ele>129</ele>
        <time>2019-10-03T16:45:00Z</time>
      </trkpt>
      <trkpt lat="44.05527" lon="4.08933">
        <ele>129</ele>
        <time>2019-10-03T16:45:02Z</time>
      </trkpt>
      <trkpt lat="44.05551" lon="4.08929">
        <ele>128</ele>
        <time>2019-10-03T16:45:07Z</time>
      </trkpt>
      <trkpt lat="44.05572" lon="4.08923">
        <ele>127</ele>
        <time>2019-10-03T16:45:11Z</time>
      </trkpt>
      <trkpt lat="44.05594" lon="4.08919">
        <ele>126</ele>
        <time>2019-10-03T16:45:15Z</time>
      </trkpt>
      <trkpt lat="44.05614" lon="4.08914">
        <ele>125</ele>
        <time>2019-10-03T16:45:19Z</time>
      </trkpt>
      <trkpt lat="44.05619" lon="4.08914">
        <ele>125</ele>
        <time>2019-10-03T16:45:20Z</time>
      </trkpt>
      <trkpt lat="44.05629" lon="4.0892">
        <ele>125</ele>
        <time>2019-10-03T16:45:23Z</time>
      </trkpt>
      <trkpt lat="44.05636" lon="4.08927">
        <ele>123</ele>
        <time>2019-10-03T16:45:27Z</time>
      </trkpt>
      <trkpt lat="44.05645" lon="4.08925">
        <ele>123</ele>
        <time>2019-10-03T16:45:31Z</time>
      </trkpt>
      <trkpt lat="44.05648" lon="4.08923">
        <ele>122</ele>
        <time>2019-10-03T16:45:32Z</time>
      </trkpt>
      <trkpt lat="44.05671" lon="4.08911">
        <ele>122</ele>
        <time>2019-10-03T16:45:39Z</time>
      </trkpt>
      <trkpt lat="44.05688" lon="4.08901">
        <ele>121</ele>
        <time>2019-10-03T16:45:44Z</time>
      </trkpt>
      <trkpt lat="44.05707" lon="4.08887">
        <ele>120</ele>
        <time>2019-10-03T16:45:50Z</time>
      </trkpt>
      <trkpt lat="44.05725" lon="4.08874">
        <ele>119</ele>
        <time>2019-10-03T16:45:56Z</time>
      </trkpt>
      <trkpt lat="44.05742" lon="4.08861">
        <ele>119</ele>
        <time>2019-10-03T16:46:02Z</time>
      </trkpt>
      <trkpt lat="44.05758" lon="4.08848">
        <ele>119</ele>
        <time>2019-10-03T16:46:08Z</time>
      </trkpt>
      <trkpt lat="44.05776" lon="4.08839">
        <ele>119</ele>
        <time>2019-10-03T16:46:14Z</time>
      </trkpt>
      <trkpt lat="44.05795" lon="4.08831">
        <ele>119</ele>
        <time>2019-10-03T16:46:21Z</time>
      </trkpt>
      <trkpt lat="44.05812" lon="4.08823">
        <ele>119</ele>
        <time>2019-10-03T16:46:28Z</time>
      </trkpt>
      <trkpt lat="44.05831" lon="4.0882">
        <ele>119</ele>
        <time>2019-10-03T16:46:36Z</time>
      </trkpt>
      <trkpt lat="44.0585" lon="4.08828">
        <ele>119</ele>
        <time>2019-10-03T16:46:44Z</time>
      </trkpt>
      <trkpt lat="44.05862" lon="4.08826">
        <ele>119</ele>
        <time>2019-10-03T16:46:49Z</time>
      </trkpt>
      <trkpt lat="44.05879" lon="4.0882">
        <ele>119</ele>
        <time>2019-10-03T16:46:56Z</time>
      </trkpt>
      <trkpt lat="44.05896" lon="4.08813">
        <ele>119</ele>
        <time>2019-10-03T16:47:03Z</time>
      </trkpt>
      <trkpt lat="44.05915" lon="4.08808">
        <ele>119</ele>
        <time>2019-10-03T16:47:11Z</time>
      </trkpt>
      <trkpt lat="44.05934" lon="4.08812">
        <ele>119</ele>
        <time>2019-10-03T16:47:19Z</time>
      </trkpt>
      <trkpt lat="44.05948" lon="4.08818">
        <ele>119</ele>
        <time>2019-10-03T16:47:25Z</time>
      </trkpt>
      <trkpt lat="44.05965" lon="4.0883">
        <ele>119</ele>
        <time>2019-10-03T16:47:33Z</time>
      </trkpt>
      <trkpt lat="44.05979" lon="4.0884">
        <ele>119</ele>
        <time>2019-10-03T16:47:39Z</time>
      </trkpt>
      <trkpt lat="44.05992" lon="4.08847">
        <ele>118</ele>
        <time>2019-10-03T16:47:45Z</time>
      </trkpt>
      <trkpt lat="44.06005" lon="4.0885">
        <ele>118</ele>
        <time>2019-10-03T16:47:51Z</time>
      </trkpt>
      <trkpt lat="44.06025" lon="4.08854">
        <ele>117</ele>
        <time>2019-10-03T16:47:58Z</time>
      </trkpt>
      <trkpt lat="44.06042" lon="4.08849">
        <ele>117</ele>
        <time>2019-10-03T16:48:04Z</time>
      </trkpt>
      <trkpt lat="44.06052" lon="4.08843">
        <ele>117</ele>
        <time>2019-10-03T16:48:08Z</time>
      </trkpt>
      <trkpt lat="44.06056" lon="4.08841">
        <ele>117</ele>
        <time>2019-10-03T16:48:10Z</time>
      </trkpt>
      <trkpt lat="44.06063" lon="4.08854">
        <ele>117</ele>
        <time>2019-10-03T16:48:14Z</time>
      </trkpt>
      <trkpt lat="44.06066" lon="4.08887">
        <ele>117</ele>
        <time>2019-10-03T16:48:18Z</time>
      </trkpt>
      <trkpt lat="44.06069" lon="4.08918">
        <ele>117</ele>
        <time>2019-10-03T16:48:21Z</time>
      </trkpt>
      <trkpt lat="44.06076" lon="4.08951">
        <ele>117</ele>
        <time>2019-10-03T16:48:24Z</time>
      </trkpt>
      <trkpt lat="44.06083" lon="4.08973">
        <ele>117</ele>
        <time>2019-10-03T16:48:26Z</time>
      </trkpt>
      <trkpt lat="44.06095" lon="4.08997">
        <ele>117</ele>
        <time>2019-10-03T16:48:29Z</time>
      </trkpt>
      <trkpt lat="44.061" lon="4.09017">
        <ele>117</ele>
        <time>2019-10-03T16:48:32Z</time>
      </trkpt>
      <trkpt lat="44.061" lon="4.09026">
        <ele>117</ele>
        <time>2019-10-03T16:48:36Z</time>
      </trkpt>
      <trkpt lat="44.061" lon="4.09028">
        <ele>118</ele>
        <time>2019-10-03T16:48:37Z</time>
      </trkpt>
      <trkpt lat="44.06099" lon="4.09038">
        <ele>118</ele>
        <time>2019-10-03T16:48:40Z</time>
      </trkpt>
      <trkpt lat="44.06106" lon="4.09066">
        <ele>118</ele>
        <time>2019-10-03T16:48:45Z</time>
      </trkpt>
      <trkpt lat="44.06119" lon="4.09087">
        <ele>119</ele>
        <time>2019-10-03T16:48:49Z</time>
      </trkpt>
      <trkpt lat="44.06134" lon="4.09104">
        <ele>120</ele>
        <time>2019-10-03T16:48:53Z</time>
      </trkpt>
      <trkpt lat="44.06147" lon="4.09116">
        <ele>120</ele>
        <time>2019-10-03T16:48:57Z</time>
      </trkpt>
      <trkpt lat="44.06167" lon="4.09138">
        <ele>121</ele>
        <time>2019-10-03T16:49:04Z</time>
      </trkpt>
      <trkpt lat="44.06182" lon="4.09155">
        <ele>121</ele>
        <time>2019-10-03T16:49:10Z</time>
      </trkpt>
      <trkpt lat="44.06195" lon="4.09174">
        <ele>121</ele>
        <time>2019-10-03T16:49:17Z</time>
      </trkpt>
      <trkpt lat="44.06201" lon="4.09196">
        <ele>121</ele>
        <time>2019-10-03T16:49:23Z</time>
      </trkpt>
      <trkpt lat="44.06205" lon="4.09224">
        <ele>121</ele>
        <time>2019-10-03T16:49:30Z</time>
      </trkpt>
      <trkpt lat="44.06205" lon="4.09248">
        <ele>121</ele>
        <time>2019-10-03T16:49:36Z</time>
      </trkpt>
      <trkpt lat="44.06203" lon="4.09249">
        <ele>121</ele>
        <time>2019-10-03T16:49:36Z</time>
      </trkpt>
      <trkpt lat="44.06192" lon="4.09263">
        <ele>120</ele>
        <time>2019-10-03T16:49:40Z</time>
      </trkpt>
      <trkpt lat="44.06193" lon="4.09273">
        <ele>120</ele>
        <time>2019-10-03T16:49:42Z</time>
      </trkpt>
      <trkpt lat="44.06197" lon="4.09292">
        <ele>120</ele>
        <time>2019-10-03T16:49:47Z</time>
      </trkpt>
      <trkpt lat="44.06195" lon="4.09296">
        <ele>119</ele>
        <time>2019-10-03T16:49:53Z</time>
      </trkpt>
      <trkpt lat="44.06199" lon="4.09295">
        <ele>119</ele>
        <time>2019-10-03T16:50:05Z</time>
      </trkpt>
    </trkseg>
  </trk>
</gpx>